Wetterdaten: Samstag, 04.04.2015
Datum Zeit Temp. Aussen +5cm Feuchte Auss Luftdruck Regen Sonnenschein Regendauer Solar Windben
04.04.2015 00:00 7,9 C 6,7 C 70 % 1016,4 hPa 0,0 l/m 0 min 0 min 0 W/m 8,4 km/h (2 Bft)
04.04.2015 00:02 7,9 C 6,7 C 70 % 1016,4 hPa 0,0 l/m 0 min 0 min 0 W/m 8,4 km/h (2 Bft)
04.04.2015 00:06 7,9 C 6,7 C 70 % 1016,4 hPa 0,0 l/m 0 min 0 min 0 W/m 8,4 km/h (2 Bft)
04.04.2015 00:08 7,8 C 6,7 C 70 % 1016,4 hPa 0,0 l/m 0 min 0 min 0 W/m 8,4 km/h (2 Bft)
04.04.2015 00:10 7,8 C 6,7 C 71 % 1016,5 hPa 0,0 l/m 0 min 0 min 0 W/m 10,5 km/h (2 Bft)
04.04.2015 00:12 7,8 C 6,1 C 70 % 1016,4 hPa 0,0 l/m 0 min 0 min 0 W/m 6,3 km/h (2 Bft)
04.04.2015 00:14 7,8 C 6,1 C 71 % 1016,4 hPa 0,0 l/m 0 min 0 min 0 W/m 6,3 km/h (2 Bft)
04.04.2015 00:16 7,8 C 6,1 C 71 % 1016,4 hPa 0,0 l/m 0 min 0 min 0 W/m 10,5 km/h (2 Bft)
04.04.2015 00:18 7,8 C 6,1 C 71 % 1016,3 hPa 0,0 l/m 0 min 0 min 0 W/m 10,5 km/h (2 Bft)
04.04.2015 00:20 7,8 C 6,1 C 71 % 1016,3 hPa 0,0 l/m 0 min 0 min 0 W/m 6,3 km/h (2 Bft)
04.04.2015 00:22 7,8 C 6,1 C 71 % 1016,3 hPa 0,0 l/m 0 min 0 min 0 W/m 4,2 km/h (1 Bft)
04.04.2015 00:24 7,8 C 6,1 C 71 % 1016,2 hPa 0,0 l/m 0 min 0 min 0 W/m 10,5 km/h (2 Bft)
04.04.2015 00:26 7,8 C 6,1 C 71 % 1016,1 hPa 0,0 l/m 0 min 0 min 0 W/m 8,4 km/h (2 Bft)
04.04.2015 00:28 7,8 C 6,1 C 71 % 1016,1 hPa 0,0 l/m 0 min 0 min 0 W/m 6,3 km/h (2 Bft)
04.04.2015 00:30 7,7 C 5,6 C 71 % 1016,1 hPa 0,0 l/m 0 min 0 min 0 W/m 4,2 km/h (1 Bft)
04.04.2015 00:32 7,7 C 5,6 C 71 % 1016,1 hPa 0,0 l/m 0 min 0 min 0 W/m 8,4 km/h (2 Bft)
04.04.2015 00:34 7,7 C 5,6 C 71 % 1016,0 hPa 0,0 l/m 0 min 0 min 0 W/m 8,4 km/h (2 Bft)
04.04.2015 00:36 7,7 C 5,6 C 71 % 1016,0 hPa 0,0 l/m 0 min 0 min 0 W/m 8,4 km/h (2 Bft)
04.04.2015 00:38 7,7 C 5,6 C 71 % 1015,9 hPa 0,0 l/m 0 min 0 min 0 W/m 10,5 km/h (2 Bft)
04.04.2015 00:40 7,7 C 5,6 C 71 % 1015,9 hPa 0,0 l/m 0 min 0 min 0 W/m 10,5 km/h (2 Bft)
04.04.2015 00:42 7,6 C 5,6 C 71 % 1015,9 hPa 0,0 l/m 0 min 0 min 0 W/m 10,5 km/h (2 Bft)
04.04.2015 00:44 7,6 C 5,6 C 71 % 1015,9 hPa 0,0 l/m 0 min 0 min 0 W/m 8,4 km/h (2 Bft)
04.04.2015 00:46 7,6 C 5,6 C 71 % 1015,9 hPa 0,0 l/m 0 min 0 min 0 W/m 6,3 km/h (2 Bft)
04.04.2015 00:48 7,6 C 6,1 C 71 % 1015,9 hPa 0,0 l/m 0 min 0 min 0 W/m 10,5 km/h (2 Bft)
04.04.2015 00:50 7,6 C 6,1 C 71 % 1015,9 hPa 0,0 l/m 0 min 0 min 0 W/m 8,4 km/h (2 Bft)
04.04.2015 00:52 7,6 C 6,1 C 71 % 1015,9 hPa 0,0 l/m 0 min 0 min 0 W/m 10,5 km/h (2 Bft)
04.04.2015 00:54 7,5 C 6,1 C 72 % 1015,9 hPa 0,0 l/m 0 min 0 min 0 W/m 16,7 km/h (3 Bft)
04.04.2015 00:56 7,5 C 6,1 C 72 % 1015,9 hPa 0,0 l/m 0 min 0 min 0 W/m 10,5 km/h (2 Bft)
04.04.2015 00:58 7,5 C 6,1 C 72 % 1015,9 hPa 0,0 l/m 0 min 0 min 0 W/m 6,3 km/h (2 Bft)
04.04.2015 01:00 7,5 C 6,1 C 72 % 1015,8 hPa 0,0 l/m 0 min 0 min 0 W/m 8,4 km/h (2 Bft)
04.04.2015 01:02 7,5 C 6,1 C 72 % 1015,8 hPa 0,0 l/m 0 min 0 min 0 W/m 8,4 km/h (2 Bft)
04.04.2015 01:04 7,5 C 6,1 C 72 % 1015,8 hPa 0,0 l/m 0 min 0 min 0 W/m 8,4 km/h (2 Bft)
04.04.2015 01:06 7,5 C 5,6 C 72 % 1015,8 hPa 0,0 l/m 0 min 0 min 0 W/m 6,3 km/h (2 Bft)
04.04.2015 01:08 7,5 C 5,6 C 72 % 1015,8 hPa 0,0 l/m 0 min 0 min 0 W/m 8,4 km/h (2 Bft)
04.04.2015 01:10 7,4 C 5,6 C 72 % 1015,7 hPa 0,0 l/m 0 min 0 min 0 W/m 6,3 km/h (2 Bft)
04.04.2015 01:12 7,4 C 5,6 C 72 % 1015,7 hPa 0,0 l/m 0 min 0 min 0 W/m 6,3 km/h (2 Bft)
04.04.2015 01:14 7,4 C 5,6 C 72 % 1015,7 hPa 0,0 l/m 0 min 0 min 0 W/m 6,3 km/h (2 Bft)
04.04.2015 01:16 7,4 C 5,6 C 72 % 1015,7 hPa 0,0 l/m 0 min 0 min 0 W/m 8,4 km/h (2 Bft)
04.04.2015 01:18 7,4 C 5,6 C 72 % 1015,6 hPa 0,0 l/m 0 min 0 min 0 W/m 8,4 km/h (2 Bft)
04.04.2015 01:20 7,4 C 5,6 C 72 % 1015,7 hPa 0,0 l/m 0 min 0 min 0 W/m 8,4 km/h (2 Bft)
04.04.2015 01:22 7,4 C 5,6 C 72 % 1015,6 hPa 0,0 l/m 0 min 0 min 0 W/m 8,4 km/h (2 Bft)
04.04.2015 01:24 7,4 C 5,6 C 72 % 1015,7 hPa 0,0 l/m 0 min 0 min 0 W/m 10,5 km/h (2 Bft)
04.04.2015 01:26 7,4 C 5,6 C 72 % 1015,7 hPa 0,0 l/m 0 min 0 min 0 W/m 12,6 km/h (3 Bft)
04.04.2015 01:28 7,4 C 6,1 C 72 % 1015,6 hPa 0,0 l/m 0 min 0 min 0 W/m 10,5 km/h (2 Bft)
04.04.2015 01:30 7,4 C 5,6 C 72 % 1015,7 hPa 0,0 l/m 0 min 0 min 0 W/m 6,3 km/h (2 Bft)
04.04.2015 01:32 7,4 C 5,6 C 72 % 1015,7 hPa 0,0 l/m 0 min 0 min 0 W/m 14,6 km/h (3 Bft)
04.04.2015 01:34 7,4 C 5,6 C 72 % 1015,7 hPa 0,0 l/m 0 min 0 min 0 W/m 8,4 km/h (2 Bft)
04.04.2015 01:36 7,4 C 6,1 C 72 % 1015,7 hPa 0,0 l/m 0 min 0 min 0 W/m 10,5 km/h (2 Bft)
04.04.2015 01:38 7,3 C 5,6 C 72 % 1015,7 hPa 0,0 l/m 0 min 0 min 0 W/m 8,4 km/h (2 Bft)
04.04.2015 01:40 7,3 C 5,6 C 72 % 1015,7 hPa 0,0 l/m 0 min 0 min 0 W/m 8,4 km/h (2 Bft)
04.04.2015 01:42 7,3 C 5,6 C 72 % 1015,7 hPa 0,0 l/m 0 min 0 min 0 W/m 10,5 km/h (2 Bft)
04.04.2015 01:44 7,3 C 5,6 C 72 % 1015,6 hPa 0,0 l/m 0 min 0 min 0 W/m 6,3 km/h (2 Bft)
04.04.2015 01:46 7,3 C 5,6 C 72 % 1015,5 hPa 0,0 l/m 0 min 0 min 0 W/m 10,5 km/h (2 Bft)
04.04.2015 01:48 7,3 C 5,6 C 73 % 1015,5 hPa 0,0 l/m 0 min 0 min 0 W/m 6,3 km/h (2 Bft)
04.04.2015 01:50 7,3 C 5,6 C 72 % 1015,5 hPa 0,0 l/m 0 min 0 min 0 W/m 6,3 km/h (2 Bft)
04.04.2015 01:52 7,3 C 5,6 C 72 % 1015,5 hPa 0,0 l/m 0 min 0 min 0 W/m 4,2 km/h (1 Bft)
04.04.2015 01:54 7,3 C 5,6 C 72 % 1015,6 hPa 0,0 l/m 0 min 0 min 0 W/m 4,2 km/h (1 Bft)
04.04.2015 01:56 7,3 C 5,6 C 72 % 1015,6 hPa 0,0 l/m 0 min 0 min 0 W/m 6,3 km/h (2 Bft)
04.04.2015 01:58 7,3 C 5,6 C 72 % 1015,5 hPa 0,0 l/m 0 min 0 min 0 W/m 6,3 km/h (2 Bft)
04.04.2015 02:00 7,3 C 5,6 C 72 % 1015,5 hPa 0,0 l/m 0 min 0 min 0 W/m 8,4 km/h (2 Bft)
04.04.2015 02:02 7,3 C 5,6 C 73 % 1015,6 hPa 0,0 l/m 0 min 0 min 0 W/m 6,3 km/h (2 Bft)
04.04.2015 02:04 7,3 C 5,6 C 72 % 1015,6 hPa 0,0 l/m 0 min 0 min 0 W/m 4,2 km/h (1 Bft)
04.04.2015 02:06 7,3 C 5,6 C 72 % 1015,6 hPa 0,0 l/m 0 min 0 min 0 W/m 6,3 km/h (2 Bft)
04.04.2015 02:08 7,2 C 5,6 C 73 % 1015,6 hPa 0,0 l/m 0 min 0 min 0 W/m 8,4 km/h (2 Bft)
04.04.2015 02:10 7,2 C 5,6 C 73 % 1015,6 hPa 0,0 l/m 0 min 0 min 0 W/m 6,3 km/h (2 Bft)
04.04.2015 02:12 7,2 C 5,6 C 73 % 1015,6 hPa 0,0 l/m 0 min 0 min 0 W/m 6,3 km/h (2 Bft)
04.04.2015 02:14 7,2 C 5,6 C 73 % 1015,5 hPa 0,0 l/m 0 min 0 min 0 W/m 6,3 km/h (2 Bft)
04.04.2015 02:16 7,2 C 5,6 C 73 % 1015,5 hPa 0,0 l/m 0 min 0 min 0 W/m 6,3 km/h (2 Bft)
04.04.2015 02:18 7,2 C 5,6 C 73 % 1015,5 hPa 0,0 l/m 0 min 0 min 0 W/m 4,2 km/h (1 Bft)
04.04.2015 02:20 7,2 C 5,6 C 73 % 1015,5 hPa 0,0 l/m 0 min 0 min 0 W/m 6,3 km/h (2 Bft)
04.04.2015 02:22 7,2 C 5,6 C 73 % 1015,4 hPa 0,0 l/m 0 min 0 min 0 W/m 4,2 km/h (1 Bft)
04.04.2015 02:24 7,2 C 5,6 C 73 % 1015,5 hPa 0,0 l/m 0 min 0 min 0 W/m 6,3 km/h (2 Bft)
04.04.2015 02:26 7,2 C 5,6 C 73 % 1015,5 hPa 0,0 l/m 0 min 0 min 0 W/m 8,4 km/h (2 Bft)
04.04.2015 02:28 7,2 C 5,6 C 73 % 1015,6 hPa 0,0 l/m 0 min 0 min 0 W/m 8,4 km/h (2 Bft)
04.04.2015 02:30 7,2 C 5,6 C 73 % 1015,6 hPa 0,0 l/m 0 min 0 min 0 W/m 8,4 km/h (2 Bft)
04.04.2015 02:32 7,1 C 5,6 C 73 % 1015,7 hPa 0,0 l/m 0 min 0 min 0 W/m 6,3 km/h (2 Bft)
04.04.2015 02:34 7,1 C 5,6 C 73 % 1015,6 hPa 0,0 l/m 0 min 0 min 0 W/m 8,4 km/h (2 Bft)
04.04.2015 02:36 7,1 C 5,6 C 73 % 1015,7 hPa 0,0 l/m 0 min 0 min 0 W/m 6,3 km/h (2 Bft)
04.04.2015 02:38 7,1 C 5,6 C 73 % 1015,7 hPa 0,0 l/m 0 min 0 min 0 W/m 4,2 km/h (1 Bft)
04.04.2015 02:40 7,1 C 5,6 C 73 % 1015,7 hPa 0,0 l/m 0 min 0 min 0 W/m 6,3 km/h (2 Bft)
04.04.2015 02:42 7,1 C 5,6 C 73 % 1015,8 hPa 0,0 l/m 0 min 0 min 0 W/m 6,3 km/h (2 Bft)
04.04.2015 02:44 7,1 C 5,6 C 73 % 1015,7 hPa 0,0 l/m 0 min 0 min 0 W/m 8,4 km/h (2 Bft)
04.04.2015 02:46 7,1 C 5,6 C 73 % 1015,7 hPa 0,0 l/m 0 min 0 min 0 W/m 6,3 km/h (2 Bft)
04.04.2015 02:48 7,1 C 5,6 C 73 % 1015,7 hPa 0,0 l/m 0 min 0 min 0 W/m 6,3 km/h (2 Bft)
04.04.2015 02:50 7,1 C 5,6 C 73 % 1015,7 hPa 0,0 l/m 0 min 0 min 0 W/m 6,3 km/h (2 Bft)
04.04.2015 02:52 7,1 C 5,6 C 73 % 1015,7 hPa 0,0 l/m 0 min 0 min 0 W/m 6,3 km/h (2 Bft)
04.04.2015 02:54 7,1 C 5,6 C 73 % 1015,8 hPa 0,0 l/m 0 min 0 min 0 W/m 6,3 km/h (2 Bft)
04.04.2015 02:56 7,1 C 5,6 C 73 % 1015,7 hPa 0,0 l/m 0 min 0 min 0 W/m 6,3 km/h (2 Bft)
04.04.2015 02:58 7,1 C 5,6 C 73 % 1015,8 hPa 0,0 l/m 0 min 0 min 0 W/m 4,2 km/h (1 Bft)
04.04.2015 03:00 7,1 C 5,6 C 73 % 1015,7 hPa 0,0 l/m 0 min 0 min 0 W/m 6,3 km/h (2 Bft)
04.04.2015 03:02 7,1 C 5,6 C 73 % 1015,7 hPa 0,0 l/m 0 min 0 min 0 W/m 6,3 km/h (2 Bft)
04.04.2015 03:04 7,1 C 5,6 C 73 % 1015,8 hPa 0,0 l/m 0 min 0 min 0 W/m 6,3 km/h (2 Bft)
04.04.2015 03:06 7,1 C 5,6 C 73 % 1015,8 hPa 0,0 l/m 0 min 0 min 0 W/m 8,4 km/h (2 Bft)
04.04.2015 03:08 7,1 C 5,6 C 73 % 1015,8 hPa 0,0 l/m 0 min 0 min 0 W/m 6,3 km/h (2 Bft)
04.04.2015 03:10 7,1 C 5,6 C 74 % 1015,7 hPa 0,0 l/m 0 min 0 min 0 W/m 6,3 km/h (2 Bft)
04.04.2015 03:12 7,1 C 5,6 C 74 % 1015,7 hPa 0,0 l/m 0 min 0 min 0 W/m 6,3 km/h (2 Bft)
04.04.2015 03:14 7,1 C 5,6 C 74 % 1015,7 hPa 0,0 l/m 0 min 0 min 0 W/m 6,3 km/h (2 Bft)
04.04.2015 03:16 7,1 C 5,6 C 74 % 1015,7 hPa 0,0 l/m 0 min 0 min 0 W/m 6,3 km/h (2 Bft)
04.04.2015 03:18 7,0 C 5,6 C 74 % 1015,6 hPa 0,0 l/m 0 min 0 min 0 W/m 6,3 km/h (2 Bft)
04.04.2015 03:20 7,0 C 5,6 C 74 % 1015,7 hPa 0,0 l/m 0 min 0 min 0 W/m 8,4 km/h (2 Bft)
04.04.2015 03:22 7,0 C 5,6 C 74 % 1015,7 hPa 0,0 l/m 0 min 0 min 0 W/m 8,4 km/h (2 Bft)
04.04.2015 03:24 7,0 C 5,6 C 73 % 1015,6 hPa 0,0 l/m 0 min 0 min 0 W/m 8,4 km/h (2 Bft)
04.04.2015 03:26 7,0 C 5,6 C 73 % 1015,5 hPa 0,0 l/m 0 min 0 min 0 W/m 6,3 km/h (2 Bft)
04.04.2015 03:28 7,0 C 5,6 C 73 % 1015,5 hPa 0,0 l/m 0 min 0 min 0 W/m 8,4 km/h (2 Bft)
04.04.2015 03:30 7,0 C 5,6 C 73 % 1015,5 hPa 0,0 l/m 0 min 0 min 0 W/m 8,4 km/h (2 Bft)
04.04.2015 03:32 6,9 C 5,6 C 73 % 1015,5 hPa 0,0 l/m 0 min 0 min 0 W/m 6,3 km/h (2 Bft)
04.04.2015 03:34 6,9 C 5,6 C 73 % 1015,6 hPa 0,0 l/m 0 min 0 min 0 W/m 10,5 km/h (2 Bft)
04.04.2015 03:36 6,9 C 5,6 C 73 % 1015,6 hPa 0,0 l/m 0 min 0 min 0 W/m 12,6 km/h (3 Bft)
04.04.2015 03:38 6,9 C 5,6 C 73 % 1015,6 hPa 0,0 l/m 0 min 0 min 0 W/m 8,4 km/h (2 Bft)
04.04.2015 03:40 6,9 C 5,6 C 73 % 1015,6 hPa 0,0 l/m 0 min 0 min 0 W/m 10,5 km/h (2 Bft)
04.04.2015 03:42 6,9 C 5,6 C 73 % 1015,5 hPa 0,0 l/m 0 min 0 min 0 W/m 14,6 km/h (3 Bft)
04.04.2015 03:44 6,9 C 5,6 C 73 % 1015,5 hPa 0,0 l/m 0 min 0 min 0 W/m 10,5 km/h (2 Bft)
04.04.2015 03:46 6,9 C 5,6 C 72 % 1015,5 hPa 0,0 l/m 0 min 0 min 0 W/m 14,6 km/h (3 Bft)
04.04.2015 03:48 6,9 C 5,6 C 72 % 1015,5 hPa 0,0 l/m 0 min 0 min 0 W/m 14,6 km/h (3 Bft)
04.04.2015 03:50 6,9 C 5,6 C 72 % 1015,5 hPa 0,0 l/m 0 min 0 min 0 W/m 12,6 km/h (3 Bft)
04.04.2015 03:52 6,8 C 5,6 C 72 % 1015,6 hPa 0,0 l/m 0 min 0 min 0 W/m 16,7 km/h (3 Bft)
04.04.2015 03:54 6,9 C 5,6 C 72 % 1015,6 hPa 0,0 l/m 0 min 0 min 0 W/m 14,6 km/h (3 Bft)
04.04.2015 03:56 6,8 C 5,6 C 71 % 1015,6 hPa 0,0 l/m 0 min 0 min 0 W/m 12,6 km/h (3 Bft)
04.04.2015 03:58 6,8 C 5,6 C 71 % 1015,6 hPa 0,0 l/m 0 min 0 min 0 W/m 14,6 km/h (3 Bft)
04.04.2015 04:00 6,8 C 5,6 C 71 % 1015,5 hPa 0,0 l/m 0 min 0 min 0 W/m 10,5 km/h (2 Bft)
04.04.2015 04:02 6,8 C 5,6 C 71 % 1015,5 hPa 0,0 l/m 0 min 0 min 0 W/m 16,7 km/h (3 Bft)
04.04.2015 04:04 6,9 C 5,6 C 71 % 1015,5 hPa 0,0 l/m 0 min 0 min 0 W/m 16,7 km/h (3 Bft)
04.04.2015 04:06 6,9 C 5,6 C 71 % 1015,5 hPa 0,0 l/m 0 min 0 min 0 W/m 12,6 km/h (3 Bft)
04.04.2015 04:08 6,9 C 5,6 C 70 % 1015,5 hPa 0,0 l/m 0 min 0 min 0 W/m 14,6 km/h (3 Bft)
04.04.2015 04:10 6,9 C 5,6 C 70 % 1015,5 hPa 0,0 l/m 0 min 0 min 0 W/m 14,6 km/h (3 Bft)
04.04.2015 04:12 6,9 C 5,6 C 70 % 1015,5 hPa 0,0 l/m 0 min 0 min 0 W/m 18,8 km/h (3 Bft)
04.04.2015 04:14 6,9 C 5,6 C 70 % 1015,4 hPa 0,0 l/m 0 min 0 min 0 W/m 10,5 km/h (2 Bft)
04.04.2015 04:16 6,9 C 5,6 C 70 % 1015,4 hPa 0,0 l/m 0 min 0 min 0 W/m 10,5 km/h (2 Bft)
04.04.2015 04:18 6,9 C 5,6 C 70 % 1015,5 hPa 0,0 l/m 0 min 0 min 0 W/m 14,6 km/h (3 Bft)
04.04.2015 04:20 6,9 C 5,6 C 70 % 1015,4 hPa 0,0 l/m 0 min 0 min 0 W/m 14,6 km/h (3 Bft)
04.04.2015 04:22 6,9 C 5,6 C 70 % 1015,5 hPa 0,0 l/m 0 min 0 min 0 W/m 10,5 km/h (2 Bft)
04.04.2015 04:24 6,9 C 5,6 C 70 % 1015,5 hPa 0,0 l/m 0 min 0 min 0 W/m 20,9 km/h (4 Bft)
04.04.2015 04:26 6,9 C 5,6 C 70 % 1015,5 hPa 0,0 l/m 0 min 0 min 0 W/m 20,9 km/h (4 Bft)
04.04.2015 04:28 6,9 C 5,6 C 70 % 1015,6 hPa 0,0 l/m 0 min 0 min 0 W/m 25,1 km/h (4 Bft)
04.04.2015 04:30 6,9 C 5,6 C 70 % 1015,5 hPa 0,0 l/m 0 min 0 min 0 W/m 18,8 km/h (3 Bft)
04.04.2015 04:32 6,9 C 5,6 C 70 % 1015,6 hPa 0,0 l/m 0 min 0 min 0 W/m 12,6 km/h (3 Bft)
04.04.2015 04:34 6,9 C 5,6 C 70 % 1015,6 hPa 0,0 l/m 0 min 0 min 0 W/m 16,7 km/h (3 Bft)
04.04.2015 04:36 7,0 C 5,6 C 70 % 1015,7 hPa 0,0 l/m 0 min 0 min 0 W/m 20,9 km/h (4 Bft)
04.04.2015 04:38 7,0 C 5,6 C 70 % 1015,6 hPa 0,0 l/m 0 min 0 min 0 W/m 25,1 km/h (4 Bft)
04.04.2015 04:40 7,0 C 5,6 C 70 % 1015,6 hPa 0,0 l/m 0 min 0 min 0 W/m 18,8 km/h (3 Bft)
04.04.2015 04:42 7,0 C 5,6 C 70 % 1015,6 hPa 0,0 l/m 0 min 0 min 0 W/m 16,7 km/h (3 Bft)
04.04.2015 04:44 7,0 C 5,6 C 70 % 1015,6 hPa 0,0 l/m 0 min 0 min 0 W/m 10,5 km/h (2 Bft)
04.04.2015 04:46 7,0 C 5,6 C 70 % 1015,6 hPa 0,0 l/m 0 min 0 min 0 W/m 12,6 km/h (3 Bft)
04.04.2015 04:48 7,0 C 5,6 C 70 % 1015,6 hPa 0,0 l/m 0 min 2 min 0 W/m 10,5 km/h (2 Bft)
04.04.2015 04:50 7,0 C 5,6 C 70 % 1015,5 hPa 0,0 l/m 0 min 0 min 0 W/m 14,6 km/h (3 Bft)
04.04.2015 04:52 7,1 C 5,6 C 71 % 1015,6 hPa 0,0 l/m 0 min 0 min 0 W/m 12,6 km/h (3 Bft)
04.04.2015 04:54 7,0 C 5,0 C 71 % 1015,6 hPa 0,0 l/m 0 min 2 min 0 W/m 18,8 km/h (3 Bft)
04.04.2015 04:56 7,0 C 5,0 C 72 % 1015,6 hPa 0,0 l/m 0 min 2 min 0 W/m 12,6 km/h (3 Bft)
04.04.2015 04:58 7,0 C 5,0 C 72 % 1015,6 hPa 0,0 l/m 0 min 0 min 0 W/m 18,8 km/h (3 Bft)
04.04.2015 05:00 7,0 C 5,0 C 72 % 1015,6 hPa 0,0 l/m 0 min 2 min 0 W/m 20,9 km/h (4 Bft)
04.04.2015 05:02 7,0 C 5,0 C 73 % 1015,6 hPa 0,0 l/m 0 min 2 min 0 W/m 16,7 km/h (3 Bft)
04.04.2015 05:04 7,0 C 4,4 C 73 % 1015,5 hPa 0,0 l/m 0 min 2 min 0 W/m 18,8 km/h (3 Bft)
04.04.2015 05:06 6,9 C 4,4 C 74 % 1015,6 hPa 0,0 l/m 0 min 2 min 0 W/m 16,7 km/h (3 Bft)
04.04.2015 05:08 6,9 C 4,4 C 74 % 1015,6 hPa 0,0 l/m 0 min 2 min 0 W/m 23,0 km/h (4 Bft)
04.04.2015 05:10 6,9 C 4,4 C 75 % 1015,6 hPa 0,0 l/m 0 min 2 min 0 W/m 18,8 km/h (3 Bft)
04.04.2015 05:12 6,9 C 3,9 C 75 % 1015,7 hPa 0,0 l/m 0 min 2 min 0 W/m 20,9 km/h (4 Bft)
04.04.2015 05:14 6,8 C 3,9 C 76 % 1015,7 hPa 0,0 l/m 0 min 2 min 0 W/m 18,8 km/h (3 Bft)
04.04.2015 05:16 6,8 C 3,9 C 76 % 1015,7 hPa 0,0 l/m 0 min 2 min 0 W/m 18,8 km/h (3 Bft)
04.04.2015 05:18 6,7 C 3,9 C 77 % 1015,7 hPa 0,0 l/m 0 min 2 min 0 W/m 23,0 km/h (4 Bft)
04.04.2015 05:20 6,7 C 3,9 C 77 % 1015,7 hPa 0,0 l/m 0 min 2 min 0 W/m 16,7 km/h (3 Bft)
04.04.2015 05:22 6,6 C 3,9 C 77 % 1015,7 hPa 0,0 l/m 0 min 2 min 0 W/m 16,7 km/h (3 Bft)
04.04.2015 05:24 6,6 C 3,9 C 78 % 1015,8 hPa 0,0 l/m 0 min 2 min 0 W/m 14,6 km/h (3 Bft)
04.04.2015 05:26 6,5 C 3,9 C 78 % 1015,8 hPa 0,0 l/m 0 min 2 min 0 W/m 20,9 km/h (4 Bft)
04.04.2015 05:28 6,4 C 3,3 C 79 % 1015,8 hPa 0,0 l/m 0 min 2 min 0 W/m 18,8 km/h (3 Bft)
04.04.2015 05:30 6,4 C 3,3 C 79 % 1015,7 hPa 0,0 l/m 0 min 2 min 0 W/m 14,6 km/h (3 Bft)
04.04.2015 05:32 6,4 C 3,9 C 79 % 1015,7 hPa 0,0 l/m 0 min 2 min 0 W/m 8,4 km/h (2 Bft)
04.04.2015 05:34 6,3 C 3,9 C 80 % 1015,7 hPa 0,2 l/m 0 min 2 min 0 W/m 16,7 km/h (3 Bft)
04.04.2015 05:36 6,3 C 3,9 C 80 % 1015,7 hPa 0,0 l/m 0 min 2 min 0 W/m 12,6 km/h (3 Bft)
04.04.2015 05:38 6,3 C 3,3 C 81 % 1015,7 hPa 0,0 l/m 0 min 2 min 0 W/m 6,3 km/h (2 Bft)
04.04.2015 05:40 6,2 C 3,3 C 81 % 1015,7 hPa 0,0 l/m 0 min 2 min 0 W/m 8,4 km/h (2 Bft)
04.04.2015 05:42 6,2 C 3,3 C 81 % 1015,7 hPa 0,0 l/m 0 min 2 min 0 W/m 20,9 km/h (4 Bft)
04.04.2015 05:44 6,2 C 3,3 C 81 % 1015,6 hPa 0,0 l/m 0 min 2 min 0 W/m 18,8 km/h (3 Bft)
04.04.2015 05:46 6,1 C 3,3 C 81 % 1015,6 hPa 0,0 l/m 0 min 2 min 0 W/m 12,6 km/h (3 Bft)
04.04.2015 05:48 6,1 C 3,3 C 82 % 1015,6 hPa 0,0 l/m 0 min 2 min 0 W/m 14,6 km/h (3 Bft)
04.04.2015 05:50 6,1 C 3,3 C 82 % 1015,5 hPa 0,0 l/m 0 min 2 min 0 W/m 4,2 km/h (1 Bft)
04.04.2015 05:52 6,0 C 3,3 C 82 % 1015,4 hPa 0,0 l/m 0 min 2 min 0 W/m 8,4 km/h (2 Bft)
04.04.2015 05:54 6,0 C 3,3 C 82 % 1015,4 hPa 0,0 l/m 0 min 2 min 0 W/m 10,5 km/h (2 Bft)
04.04.2015 05:56 5,9 C 3,3 C 83 % 1015,3 hPa 0,0 l/m 0 min 2 min 0 W/m 10,5 km/h (2 Bft)
04.04.2015 05:58 5,9 C 3,3 C 83 % 1015,3 hPa 0,0 l/m 0 min 0 min 0 W/m 12,6 km/h (3 Bft)
04.04.2015 06:00 5,9 C 3,3 C 83 % 1015,4 hPa 0,0 l/m 0 min 0 min 0 W/m 12,6 km/h (3 Bft)
04.04.2015 06:02 5,8 C 3,3 C 83 % 1015,4 hPa 0,0 l/m 0 min 2 min 0 W/m 12,6 km/h (3 Bft)
04.04.2015 06:06 5,8 C 3,3 C 83 % 1015,5 hPa 0,0 l/m 0 min 0 min 0 W/m 10,5 km/h (2 Bft)
04.04.2015 06:08 5,7 C 3,3 C 83 % 1015,6 hPa 0,0 l/m 0 min 0 min 0 W/m 10,5 km/h (2 Bft)
04.04.2015 06:10 5,7 C 3,3 C 83 % 1015,6 hPa 0,0 l/m 0 min 0 min 0 W/m 12,6 km/h (3 Bft)
04.04.2015 06:12 5,7 C 3,3 C 84 % 1015,7 hPa 0,0 l/m 0 min 0 min 0 W/m 6,3 km/h (2 Bft)
04.04.2015 06:14 5,7 C 3,3 C 84 % 1015,6 hPa 0,0 l/m 0 min 0 min 0 W/m 4,2 km/h (1 Bft)
04.04.2015 06:16 5,7 C 3,3 C 84 % 1015,6 hPa 0,0 l/m 0 min 0 min 0 W/m 6,3 km/h (2 Bft)
04.04.2015 06:18 5,7 C 3,3 C 84 % 1015,6 hPa 0,0 l/m 0 min 2 min 0 W/m 4,2 km/h (1 Bft)
04.04.2015 06:20 5,6 C 3,3 C 84 % 1015,6 hPa 0,0 l/m 0 min 0 min 0 W/m 6,3 km/h (2 Bft)
04.04.2015 06:22 5,6 C 3,3 C 84 % 1015,7 hPa 0,0 l/m 0 min 2 min 0 W/m 4,2 km/h (1 Bft)
04.04.2015 06:24 5,6 C 3,3 C 84 % 1015,7 hPa 0,0 l/m 0 min 0 min 0 W/m 4,2 km/h (1 Bft)
04.04.2015 06:26 5,6 C 3,3 C 84 % 1015,8 hPa 0,0 l/m 0 min 0 min 0 W/m 4,2 km/h (1 Bft)
04.04.2015 06:28 5,6 C 3,3 C 84 % 1015,8 hPa 0,0 l/m 0 min 2 min 0 W/m 6,3 km/h (2 Bft)
04.04.2015 06:30 5,6 C 3,3 C 84 % 1015,7 hPa 0,0 l/m 0 min 2 min 0 W/m 8,4 km/h (2 Bft)
04.04.2015 06:32 5,6 C 3,3 C 84 % 1015,7 hPa 0,0 l/m 0 min 2 min 0 W/m 6,3 km/h (2 Bft)
04.04.2015 06:34 5,6 C 3,3 C 85 % 1015,8 hPa 0,0 l/m 0 min 2 min 0 W/m 8,4 km/h (2 Bft)
04.04.2015 06:36 5,6 C 3,3 C 85 % 1015,7 hPa 0,0 l/m 0 min 2 min 0 W/m 6,3 km/h (2 Bft)
04.04.2015 06:38 5,6 C 3,3 C 85 % 1015,7 hPa 0,0 l/m 0 min 2 min 0 W/m 4,2 km/h (1 Bft)
04.04.2015 06:40 5,5 C 3,3 C 85 % 1015,8 hPa 0,0 l/m 0 min 2 min 0 W/m 2,1 km/h (1 Bft)
04.04.2015 06:42 5,5 C 3,3 C 85 % 1015,8 hPa 0,0 l/m 0 min 2 min 0 W/m 4,2 km/h (1 Bft)
04.04.2015 06:44 5,5 C 3,3 C 85 % 1015,8 hPa 0,0 l/m 0 min 2 min 0 W/m 4,2 km/h (1 Bft)
04.04.2015 06:46 5,5 C 3,3 C 85 % 1015,8 hPa 0,0 l/m 0 min 2 min 0 W/m 4,2 km/h (1 Bft)
04.04.2015 06:48 5,4 C 3,3 C 85 % 1015,8 hPa 0,0 l/m 0 min 0 min 0 W/m 4,2 km/h (1 Bft)
04.04.2015 06:50 5,4 C 3,3 C 86 % 1015,8 hPa 0,0 l/m 0 min 2 min 0 W/m 2,1 km/h (1 Bft)
04.04.2015 06:52 5,4 C 3,3 C 86 % 1015,8 hPa 0,0 l/m 0 min 0 min 0 W/m 4,2 km/h (1 Bft)
04.04.2015 06:54 5,4 C 3,3 C 86 % 1015,8 hPa 0,0 l/m 0 min 2 min 0 W/m 4,2 km/h (1 Bft)
04.04.2015 06:56 5,4 C 3,3 C 86 % 1015,8 hPa 0,0 l/m 0 min 2 min 0 W/m 4,2 km/h (1 Bft)
04.04.2015 06:58 5,4 C 3,3 C 86 % 1015,8 hPa 0,0 l/m 0 min 2 min 0 W/m 4,2 km/h (1 Bft)
04.04.2015 07:00 5,4 C 3,3 C 86 % 1015,8 hPa 0,0 l/m 0 min 2 min 0 W/m 6,3 km/h (2 Bft)
04.04.2015 07:02 5,4 C 3,3 C 86 % 1015,9 hPa 0,0 l/m 0 min 2 min 0 W/m 4,2 km/h (1 Bft)
04.04.2015 07:04 5,4 C 3,3 C 86 % 1015,9 hPa 0,0 l/m 0 min 2 min 0 W/m 6,3 km/h (2 Bft)
04.04.2015 07:06 5,4 C 3,3 C 86 % 1015,9 hPa 0,0 l/m 0 min 2 min 0 W/m 8,4 km/h (2 Bft)
04.04.2015 07:08 5,4 C 3,3 C 86 % 1015,9 hPa 0,0 l/m 0 min 2 min 0 W/m 6,3 km/h (2 Bft)
04.04.2015 07:10 5,4 C 3,3 C 86 % 1015,9 hPa 0,0 l/m 0 min 2 min 0 W/m 6,3 km/h (2 Bft)
04.04.2015 07:12 5,3 C 3,3 C 86 % 1015,9 hPa 0,2 l/m 0 min 2 min 0 W/m 6,3 km/h (2 Bft)
04.04.2015 07:14 5,3 C 3,3 C 87 % 1016,0 hPa 0,0 l/m 0 min 2 min 0 W/m 8,4 km/h (2 Bft)
04.04.2015 07:16 5,3 C 3,3 C 87 % 1015,9 hPa 0,0 l/m 0 min 2 min 0 W/m 8,4 km/h (2 Bft)
04.04.2015 07:18 5,3 C 3,3 C 87 % 1015,9 hPa 0,0 l/m 0 min 2 min 4 W/m 6,3 km/h (2 Bft)
04.04.2015 07:20 5,3 C 3,3 C 87 % 1015,9 hPa 0,0 l/m 0 min 2 min 5 W/m 6,3 km/h (2 Bft)
04.04.2015 07:22 5,3 C 3,3 C 87 % 1016,0 hPa 0,0 l/m 0 min 2 min 6 W/m 6,3 km/h (2 Bft)
04.04.2015 07:24 5,3 C 3,3 C 87 % 1015,9 hPa 0,0 l/m 0 min 2 min 7 W/m 6,3 km/h (2 Bft)
04.04.2015 07:26 5,3 C 3,3 C 87 % 1016,0 hPa 0,0 l/m 0 min 2 min 7 W/m 4,2 km/h (1 Bft)
04.04.2015 07:28 5,2 C 3,3 C 88 % 1016,1 hPa 0,0 l/m 0 min 2 min 7 W/m 2,1 km/h (1 Bft)
04.04.2015 07:30 5,2 C 3,3 C 88 % 1016,1 hPa 0,0 l/m 0 min 2 min 7 W/m 2,1 km/h (1 Bft)
04.04.2015 07:32 5,2 C 3,3 C 88 % 1016,2 hPa 0,2 l/m 0 min 2 min 7 W/m 2,1 km/h (1 Bft)
04.04.2015 07:34 5,2 C 3,3 C 88 % 1016,2 hPa 0,0 l/m 0 min 2 min 6 W/m 6,3 km/h (2 Bft)
04.04.2015 07:36 5,2 C 3,3 C 88 % 1016,2 hPa 0,0 l/m 0 min 2 min 5 W/m 10,5 km/h (2 Bft)
04.04.2015 07:38 5,2 C 3,3 C 88 % 1016,3 hPa 0,0 l/m 0 min 2 min 0 W/m 8,4 km/h (2 Bft)
04.04.2015 07:40 5,2 C 3,3 C 88 % 1016,3 hPa 0,0 l/m 0 min 2 min 0 W/m 8,4 km/h (2 Bft)
04.04.2015 07:42 5,2 C 3,3 C 88 % 1016,3 hPa 0,0 l/m 0 min 2 min 0 W/m 12,6 km/h (3 Bft)
04.04.2015 07:44 5,2 C 3,3 C 89 % 1016,4 hPa 0,0 l/m 0 min 2 min 5 W/m 14,6 km/h (3 Bft)
04.04.2015 07:46 5,2 C 3,3 C 89 % 1016,4 hPa 0,0 l/m 0 min 2 min 7 W/m 20,9 km/h (4 Bft)
04.04.2015 07:48 5,1 C 3,3 C 89 % 1016,4 hPa 0,0 l/m 0 min 2 min 9 W/m 18,8 km/h (3 Bft)
04.04.2015 07:50 5,0 C 2,8 C 89 % 1016,5 hPa 0,2 l/m 0 min 2 min 10 W/m 18,8 km/h (3 Bft)
04.04.2015 07:52 4,9 C 2,8 C 89 % 1016,5 hPa 0,0 l/m 0 min 2 min 12 W/m 18,8 km/h (3 Bft)
04.04.2015 07:54 4,8 C 2,8 C 90 % 1016,5 hPa 0,0 l/m 0 min 2 min 13 W/m 18,8 km/h (3 Bft)
04.04.2015 07:56 4,8 C 2,8 C 90 % 1016,6 hPa 0,0 l/m 0 min 2 min 14 W/m 14,6 km/h (3 Bft)
04.04.2015 07:58 4,7 C 2,8 C 90 % 1016,6 hPa 0,2 l/m 0 min 2 min 13 W/m 18,8 km/h (3 Bft)
04.04.2015 08:00 4,7 C 2,8 C 90 % 1016,6 hPa 0,0 l/m 0 min 2 min 12 W/m 18,8 km/h (3 Bft)
04.04.2015 08:02 4,7 C 2,8 C 90 % 1016,6 hPa 0,0 l/m 0 min 2 min 13 W/m 14,6 km/h (3 Bft)
04.04.2015 08:04 4,6 C 2,8 C 90 % 1016,6 hPa 0,0 l/m 0 min 2 min 15 W/m 10,5 km/h (2 Bft)
04.04.2015 08:06 4,6 C 2,8 C 90 % 1016,6 hPa 0,0 l/m 0 min 2 min 16 W/m 14,6 km/h (3 Bft)
04.04.2015 08:08 4,5 C 2,8 C 91 % 1016,6 hPa 0,0 l/m 0 min 2 min 16 W/m 14,6 km/h (3 Bft)
04.04.2015 08:10 4,4 C 2,8 C 91 % 1016,6 hPa 0,0 l/m 0 min 2 min 16 W/m 8,4 km/h (2 Bft)
04.04.2015 08:12 4,4 C 2,8 C 91 % 1016,5 hPa 0,2 l/m 0 min 2 min 16 W/m 10,5 km/h (2 Bft)
04.04.2015 08:14 4,4 C 2,8 C 91 % 1016,6 hPa 0,0 l/m 0 min 2 min 16 W/m 8,4 km/h (2 Bft)
04.04.2015 08:16 4,4 C 2,8 C 91 % 1016,6 hPa 0,0 l/m 0 min 2 min 16 W/m 10,5 km/h (2 Bft)
04.04.2015 08:18 4,4 C 2,8 C 91 % 1016,6 hPa 0,0 l/m 0 min 2 min 16 W/m 10,5 km/h (2 Bft)
04.04.2015 08:20 4,3 C 2,8 C 91 % 1016,6 hPa 0,0 l/m 0 min 2 min 16 W/m 10,5 km/h (2 Bft)
04.04.2015 08:22 4,3 C 2,8 C 91 % 1016,6 hPa 0,0 l/m 0 min 2 min 16 W/m 12,6 km/h (3 Bft)
04.04.2015 08:24 4,3 C 2,8 C 91 % 1016,7 hPa 0,0 l/m 0 min 2 min 17 W/m 8,4 km/h (2 Bft)
04.04.2015 08:26 4,3 C 2,8 C 91 % 1016,6 hPa 0,2 l/m 0 min 2 min 18 W/m 10,5 km/h (2 Bft)
04.04.2015 08:28 4,2 C 2,8 C 92 % 1016,7 hPa 0,0 l/m 0 min 2 min 17 W/m 10,5 km/h (2 Bft)
04.04.2015 08:30 4,2 C 2,8 C 92 % 1016,7 hPa 0,0 l/m 0 min 2 min 15 W/m 10,5 km/h (2 Bft)
04.04.2015 08:32 4,2 C 2,8 C 92 % 1016,7 hPa 0,0 l/m 0 min 2 min 13 W/m 14,6 km/h (3 Bft)
04.04.2015 08:34 4,2 C 2,8 C 92 % 1016,7 hPa 0,0 l/m 0 min 2 min 14 W/m 16,7 km/h (3 Bft)
04.04.2015 08:36 4,1 C 2,8 C 92 % 1016,7 hPa 0,0 l/m 0 min 2 min 17 W/m 14,6 km/h (3 Bft)
04.04.2015 08:38 4,1 C 2,8 C 92 % 1016,7 hPa 0,0 l/m 0 min 2 min 18 W/m 14,6 km/h (3 Bft)
04.04.2015 08:40 4,1 C 2,8 C 92 % 1016,7 hPa 0,0 l/m 0 min 2 min 18 W/m 20,9 km/h (4 Bft)
04.04.2015 08:42 4,1 C 2,8 C 92 % 1016,7 hPa 0,0 l/m 0 min 2 min 18 W/m 18,8 km/h (3 Bft)
04.04.2015 08:44 4,0 C 2,2 C 92 % 1016,8 hPa 0,2 l/m 0 min 2 min 18 W/m 14,6 km/h (3 Bft)
04.04.2015 08:46 4,0 C 2,2 C 92 % 1016,7 hPa 0,0 l/m 0 min 2 min 19 W/m 14,6 km/h (3 Bft)
04.04.2015 08:48 3,9 C 2,2 C 92 % 1016,7 hPa 0,0 l/m 0 min 2 min 21 W/m 14,6 km/h (3 Bft)
04.04.2015 08:50 3,9 C 2,2 C 92 % 1016,7 hPa 0,0 l/m 0 min 2 min 21 W/m 16,7 km/h (3 Bft)
04.04.2015 08:52 3,8 C 2,2 C 92 % 1016,7 hPa 0,0 l/m 0 min 2 min 23 W/m 23,0 km/h (4 Bft)
04.04.2015 08:54 3,8 C 2,2 C 92 % 1016,7 hPa 0,2 l/m 0 min 2 min 23 W/m 20,9 km/h (4 Bft)
04.04.2015 08:56 3,7 C 2,2 C 92 % 1016,8 hPa 0,0 l/m 0 min 2 min 26 W/m 18,8 km/h (3 Bft)
04.04.2015 08:58 3,7 C 2,2 C 92 % 1016,8 hPa 0,0 l/m 0 min 2 min 29 W/m 16,7 km/h (3 Bft)
04.04.2015 09:00 3,7 C 2,2 C 92 % 1016,8 hPa 0,0 l/m 0 min 2 min 33 W/m 25,1 km/h (4 Bft)
04.04.2015 09:02 3,6 C 2,2 C 92 % 1016,8 hPa 0,0 l/m 0 min 2 min 34 W/m 20,9 km/h (4 Bft)
04.04.2015 09:04 3,6 C 2,2 C 92 % 1016,8 hPa 0,0 l/m 0 min 2 min 38 W/m 18,8 km/h (3 Bft)
04.04.2015 09:06 3,6 C 2,2 C 92 % 1016,8 hPa 0,0 l/m 0 min 2 min 39 W/m 18,8 km/h (3 Bft)
04.04.2015 09:08 3,6 C 2,2 C 92 % 1016,8 hPa 0,2 l/m 0 min 2 min 39 W/m 18,8 km/h (3 Bft)
04.04.2015 09:10 3,6 C 2,2 C 92 % 1016,8 hPa 0,0 l/m 0 min 2 min 40 W/m 23,0 km/h (4 Bft)
04.04.2015 09:12 3,5 C 2,2 C 92 % 1016,8 hPa 0,0 l/m 0 min 2 min 40 W/m 14,6 km/h (3 Bft)
04.04.2015 09:14 3,5 C 2,2 C 92 % 1016,9 hPa 0,0 l/m 0 min 2 min 42 W/m 23,0 km/h (4 Bft)
04.04.2015 09:16 3,5 C 2,2 C 93 % 1016,8 hPa 0,0 l/m 0 min 2 min 44 W/m 16,7 km/h (3 Bft)
04.04.2015 09:18 3,5 C 2,2 C 93 % 1016,9 hPa 0,0 l/m 0 min 2 min 49 W/m 25,1 km/h (4 Bft)
04.04.2015 09:20 3,4 C 2,2 C 93 % 1016,9 hPa 0,0 l/m 0 min 2 min 47 W/m 23,0 km/h (4 Bft)
04.04.2015 09:22 3,4 C 2,2 C 93 % 1016,9 hPa 0,2 l/m 0 min 2 min 42 W/m 18,8 km/h (3 Bft)
04.04.2015 09:24 3,4 C 2,2 C 93 % 1016,8 hPa 0,0 l/m 0 min 2 min 46 W/m 23,0 km/h (4 Bft)
04.04.2015 09:26 3,4 C 2,2 C 93 % 1016,8 hPa 0,0 l/m 0 min 2 min 51 W/m 20,9 km/h (4 Bft)
04.04.2015 09:28 3,4 C 2,2 C 93 % 1016,9 hPa 0,0 l/m 0 min 2 min 59 W/m 18,8 km/h (3 Bft)
04.04.2015 09:30 3,4 C 2,2 C 93 % 1016,9 hPa 0,0 l/m 0 min 2 min 64 W/m 20,9 km/h (4 Bft)
04.04.2015 09:32 3,4 C 2,2 C 93 % 1016,9 hPa 0,0 l/m 0 min 2 min 70 W/m 23,0 km/h (4 Bft)
04.04.2015 09:34 3,4 C 2,2 C 93 % 1016,9 hPa 0,0 l/m 0 min 2 min 69 W/m 18,8 km/h (3 Bft)
04.04.2015 09:36 3,4 C 2,2 C 93 % 1016,9 hPa 0,0 l/m 0 min 2 min 61 W/m 20,9 km/h (4 Bft)
04.04.2015 09:38 3,4 C 2,2 C 93 % 1016,9 hPa 0,0 l/m 0 min 2 min 54 W/m 20,9 km/h (4 Bft)
04.04.2015 09:40 3,4 C 2,2 C 93 % 1017,0 hPa 0,0 l/m 0 min 2 min 56 W/m 25,1 km/h (4 Bft)
04.04.2015 09:42 3,3 C 2,2 C 93 % 1016,9 hPa 0,0 l/m 0 min 2 min 62 W/m 23,0 km/h (4 Bft)
04.04.2015 09:44 3,3 C 2,2 C 93 % 1017,0 hPa 0,0 l/m 0 min 2 min 67 W/m 16,7 km/h (3 Bft)
04.04.2015 09:46 3,3 C 2,2 C 93 % 1017,0 hPa 0,2 l/m 0 min 2 min 64 W/m 23,0 km/h (4 Bft)
04.04.2015 09:48 3,3 C 2,2 C 93 % 1017,1 hPa 0,0 l/m 0 min 2 min 68 W/m 25,1 km/h (4 Bft)
04.04.2015 09:50 3,3 C 2,2 C 93 % 1017,2 hPa 0,0 l/m 0 min 2 min 69 W/m 25,1 km/h (4 Bft)
04.04.2015 09:52 3,2 C 2,2 C 93 % 1017,1 hPa 0,0 l/m 0 min 2 min 82 W/m 25,1 km/h (4 Bft)
04.04.2015 09:54 3,2 C 2,2 C 93 % 1017,2 hPa 0,0 l/m 0 min 2 min 85 W/m 23,0 km/h (4 Bft)
04.04.2015 09:56 3,2 C 2,2 C 93 % 1017,3 hPa 0,0 l/m 0 min 2 min 80 W/m 29,3 km/h (5 Bft)
04.04.2015 09:58 3,2 C 2,2 C 93 % 1017,3 hPa 0,0 l/m 0 min 2 min 74 W/m 23,0 km/h (4 Bft)
04.04.2015 10:00 3,1 C 2,2 C 93 % 1017,3 hPa 0,0 l/m 0 min 2 min 75 W/m 27,2 km/h (4 Bft)
04.04.2015 10:02 3,1 C 1,7 C 93 % 1017,4 hPa 0,0 l/m 0 min 2 min 82 W/m 29,3 km/h (5 Bft)
04.04.2015 10:04 3,0 C 1,7 C 93 % 1017,4 hPa 0,0 l/m 0 min 2 min 83 W/m 33,5 km/h (5 Bft)
04.04.2015 10:06 2,9 C 1,7 C 93 % 1017,5 hPa 0,0 l/m 0 min 2 min 82 W/m 23,0 km/h (4 Bft)
04.04.2015 10:08 2,9 C 1,7 C 93 % 1017,4 hPa 0,0 l/m 0 min 2 min 76 W/m 20,9 km/h (4 Bft)
04.04.2015 10:10 2,9 C 1,7 C 93 % 1017,4 hPa 0,0 l/m 0 min 2 min 72 W/m 20,9 km/h (4 Bft)
04.04.2015 10:12 2,9 C 2,2 C 93 % 1017,5 hPa 0,0 l/m 0 min 2 min 70 W/m 18,8 km/h (3 Bft)
04.04.2015 10:14 2,9 C 2,2 C 93 % 1017,5 hPa 0,0 l/m 0 min 2 min 74 W/m 16,7 km/h (3 Bft)
04.04.2015 10:16 2,9 C 2,2 C 93 % 1017,5 hPa 0,0 l/m 0 min 2 min 83 W/m 14,6 km/h (3 Bft)
04.04.2015 10:18 3,0 C 2,2 C 93 % 1017,5 hPa 0,0 l/m 0 min 2 min 91 W/m 16,7 km/h (3 Bft)
04.04.2015 10:20 3,0 C 2,2 C 93 % 1017,5 hPa 0,0 l/m 0 min 2 min 97 W/m 14,6 km/h (3 Bft)
04.04.2015 10:22 3,0 C 2,2 C 93 % 1017,6 hPa 0,2 l/m 0 min 2 min 99 W/m 16,7 km/h (3 Bft)
04.04.2015 10:24 3,0 C 2,2 C 93 % 1017,6 hPa 0,0 l/m 0 min 2 min 103 W/m 12,6 km/h (3 Bft)
04.04.2015 10:26 3,1 C 2,2 C 93 % 1017,5 hPa 0,0 l/m 0 min 0 min 105 W/m 10,5 km/h (2 Bft)
04.04.2015 10:28 3,1 C 2,2 C 93 % 1017,5 hPa 0,0 l/m 0 min 0 min 109 W/m 12,6 km/h (3 Bft)
04.04.2015 10:30 3,1 C 2,2 C 93 % 1017,6 hPa 0,0 l/m 0 min 0 min 114 W/m 12,6 km/h (3 Bft)
04.04.2015 10:32 3,2 C 2,8 C 93 % 1017,6 hPa 0,0 l/m 0 min 0 min 122 W/m 8,4 km/h (2 Bft)
04.04.2015 10:34 3,2 C 2,8 C 93 % 1017,6 hPa 0,0 l/m 0 min 0 min 130 W/m 12,6 km/h (3 Bft)
04.04.2015 10:36 3,2 C 2,8 C 94 % 1017,6 hPa 0,0 l/m 0 min 0 min 137 W/m 12,6 km/h (3 Bft)
04.04.2015 10:38 3,3 C 2,8 C 94 % 1017,6 hPa 0,0 l/m 0 min 0 min 142 W/m 10,5 km/h (2 Bft)
04.04.2015 10:40 3,3 C 2,8 C 94 % 1017,6 hPa 0,0 l/m 0 min 0 min 144 W/m 14,6 km/h (3 Bft)
04.04.2015 10:42 3,3 C 2,8 C 94 % 1017,5 hPa 0,0 l/m 0 min 0 min 148 W/m 14,6 km/h (3 Bft)
04.04.2015 10:44 3,4 C 2,8 C 94 % 1017,5 hPa 0,0 l/m 0 min 0 min 154 W/m 14,6 km/h (3 Bft)
04.04.2015 10:46 3,4 C 2,8 C 94 % 1017,6 hPa 0,0 l/m 0 min 0 min 167 W/m 18,8 km/h (3 Bft)
04.04.2015 10:48 3,4 C 2,8 C 93 % 1017,6 hPa 0,0 l/m 0 min 0 min 185 W/m 18,8 km/h (3 Bft)
04.04.2015 10:50 3,4 C 2,8 C 93 % 1017,5 hPa 0,0 l/m 0 min 0 min 210 W/m 18,8 km/h (3 Bft)
04.04.2015 10:52 3,4 C 2,8 C 93 % 1017,6 hPa 0,0 l/m 0 min 0 min 230 W/m 18,8 km/h (3 Bft)
04.04.2015 10:54 3,5 C 2,8 C 93 % 1017,6 hPa 0,0 l/m 0 min 0 min 221 W/m 14,6 km/h (3 Bft)
04.04.2015 10:56 3,6 C 3,3 C 93 % 1017,6 hPa 0,0 l/m 0 min 0 min 185 W/m 14,6 km/h (3 Bft)
04.04.2015 10:58 3,6 C 3,3 C 93 % 1017,6 hPa 0,0 l/m 0 min 0 min 175 W/m 16,7 km/h (3 Bft)
04.04.2015 11:00 3,7 C 2,8 C 93 % 1017,6 hPa 0,0 l/m 0 min 0 min 188 W/m 16,7 km/h (3 Bft)
04.04.2015 11:02 3,7 C 3,3 C 93 % 1017,7 hPa 0,0 l/m 0 min 0 min 205 W/m 12,6 km/h (3 Bft)
04.04.2015 11:04 3,7 C 3,3 C 93 % 1017,7 hPa 0,0 l/m 0 min 0 min 199 W/m 16,7 km/h (3 Bft)
04.04.2015 11:06 3,8 C 3,3 C 93 % 1017,7 hPa 0,0 l/m 0 min 0 min 170 W/m 18,8 km/h (3 Bft)
04.04.2015 11:08 3,8 C 2,8 C 93 % 1017,7 hPa 0,0 l/m 0 min 0 min 162 W/m 18,8 km/h (3 Bft)
04.04.2015 11:10 3,8 C 2,8 C 93 % 1017,7 hPa 0,0 l/m 0 min 0 min 169 W/m 16,7 km/h (3 Bft)
04.04.2015 11:12 3,9 C 3,3 C 93 % 1017,7 hPa 0,0 l/m 0 min 0 min 181 W/m 16,7 km/h (3 Bft)
04.04.2015 11:14 3,9 C 3,3 C 93 % 1017,7 hPa 0,0 l/m 0 min 0 min 195 W/m 18,8 km/h (3 Bft)
04.04.2015 11:16 4,0 C 3,3 C 93 % 1017,8 hPa 0,0 l/m 0 min 0 min 206 W/m 20,9 km/h (4 Bft)
04.04.2015 11:18 4,0 C 3,3 C 92 % 1017,8 hPa 0,0 l/m 0 min 0 min 220 W/m 23,0 km/h (4 Bft)
04.04.2015 11:20 4,0 C 3,3 C 92 % 1017,7 hPa 0,0 l/m 0 min 0 min 237 W/m 16,7 km/h (3 Bft)
04.04.2015 11:22 4,1 C 3,3 C 92 % 1017,8 hPa 0,0 l/m 2 min 0 min 323 W/m 20,9 km/h (4 Bft)
04.04.2015 11:24 4,1 C 3,9 C 92 % 1017,7 hPa 0,0 l/m 2 min 0 min 414 W/m 16,7 km/h (3 Bft)
04.04.2015 11:26 4,2 C 3,3 C 92 % 1017,8 hPa 0,0 l/m 2 min 0 min 369 W/m 18,8 km/h (3 Bft)
04.04.2015 11:28 4,2 C 3,3 C 92 % 1017,7 hPa 0,0 l/m 2 min 0 min 379 W/m 14,6 km/h (3 Bft)
04.04.2015 11:30 4,3 C 3,3 C 91 % 1017,8 hPa 0,0 l/m 2 min 0 min 393 W/m 18,8 km/h (3 Bft)
04.04.2015 11:32 4,4 C 3,3 C 91 % 1017,8 hPa 0,0 l/m 2 min 0 min 475 W/m 18,8 km/h (3 Bft)
04.04.2015 11:34 4,6 C 3,3 C 91 % 1017,8 hPa 0,0 l/m 2 min 0 min 584 W/m 18,8 km/h (3 Bft)
04.04.2015 11:36 4,6 C 3,3 C 90 % 1017,8 hPa 0,0 l/m 2 min 0 min 600 W/m 23,0 km/h (4 Bft)
04.04.2015 11:38 4,7 C 3,9 C 90 % 1017,8 hPa 0,0 l/m 2 min 0 min 536 W/m 20,9 km/h (4 Bft)
04.04.2015 11:40 4,7 C 3,3 C 89 % 1017,9 hPa 0,0 l/m 2 min 0 min 331 W/m 18,8 km/h (3 Bft)
04.04.2015 11:42 4,8 C 3,3 C 89 % 1018,0 hPa 0,0 l/m 0 min 0 min 207 W/m 23,0 km/h (4 Bft)
04.04.2015 11:44 4,8 C 3,3 C 88 % 1017,9 hPa 0,0 l/m 0 min 0 min 208 W/m 18,8 km/h (3 Bft)
04.04.2015 11:46 4,9 C 3,3 C 87 % 1018,0 hPa 0,0 l/m 0 min 0 min 213 W/m 20,9 km/h (4 Bft)
04.04.2015 11:48 4,9 C 3,3 C 87 % 1018,0 hPa 0,0 l/m 0 min 0 min 218 W/m 27,2 km/h (4 Bft)
04.04.2015 11:50 4,9 C 3,3 C 86 % 1018,0 hPa 0,0 l/m 0 min 0 min 261 W/m 25,1 km/h (4 Bft)
04.04.2015 11:52 4,9 C 3,3 C 85 % 1018,0 hPa 0,0 l/m 2 min 0 min 331 W/m 20,9 km/h (4 Bft)
04.04.2015 11:54 5,0 C 3,9 C 85 % 1018,0 hPa 0,0 l/m 2 min 0 min 322 W/m 20,9 km/h (4 Bft)
04.04.2015 11:56 5,1 C 4,4 C 85 % 1018,0 hPa 0,0 l/m 0 min 0 min 290 W/m 25,1 km/h (4 Bft)
04.04.2015 11:58 5,2 C 4,4 C 85 % 1018,0 hPa 0,0 l/m 0 min 0 min 268 W/m 14,6 km/h (3 Bft)
04.04.2015 12:00 5,3 C 4,4 C 85 % 1018,0 hPa 0,0 l/m 0 min 0 min 248 W/m 23,0 km/h (4 Bft)
04.04.2015 12:02 5,3 C 4,4 C 84 % 1018,0 hPa 0,0 l/m 0 min 0 min 277 W/m 25,1 km/h (4 Bft)
04.04.2015 12:06 5,4 C 4,4 C 84 % 1018,1 hPa 0,0 l/m 0 min 0 min 295 W/m 25,1 km/h (4 Bft)
04.04.2015 12:08 5,4 C 3,9 C 83 % 1018,2 hPa 0,0 l/m 0 min 0 min 320 W/m 23,0 km/h (4 Bft)
04.04.2015 12:10 5,4 C 4,4 C 82 % 1018,0 hPa 0,0 l/m 2 min 0 min 354 W/m 23,0 km/h (4 Bft)
04.04.2015 12:12 5,6 C 4,4 C 83 % 1018,0 hPa 0,0 l/m 2 min 0 min 442 W/m 23,0 km/h (4 Bft)
04.04.2015 12:14 5,6 C 4,4 C 82 % 1018,1 hPa 0,0 l/m 2 min 0 min 588 W/m 20,9 km/h (4 Bft)
04.04.2015 12:16 5,8 C 5,0 C 82 % 1018,0 hPa 0,0 l/m 2 min 0 min 766 W/m 18,8 km/h (3 Bft)
04.04.2015 12:18 5,9 C 4,4 C 82 % 1018,0 hPa 0,0 l/m 2 min 0 min 713 W/m 23,0 km/h (4 Bft)
04.04.2015 12:20 6,0 C 4,4 C 81 % 1018,0 hPa 0,0 l/m 2 min 0 min 669 W/m 16,7 km/h (3 Bft)
04.04.2015 12:22 6,2 C 4,4 C 80 % 1018,1 hPa 0,0 l/m 2 min 0 min 786 W/m 25,1 km/h (4 Bft)
04.04.2015 12:24 6,3 C 4,4 C 80 % 1018,1 hPa 0,0 l/m 2 min 0 min 817 W/m 27,2 km/h (4 Bft)
04.04.2015 12:26 6,4 C 5,0 C 79 % 1018,1 hPa 0,0 l/m 2 min 0 min 754 W/m 23,0 km/h (4 Bft)
04.04.2015 12:28 6,5 C 5,0 C 79 % 1018,2 hPa 0,0 l/m 2 min 0 min 585 W/m 20,9 km/h (4 Bft)
04.04.2015 12:30 6,7 C 5,0 C 79 % 1018,1 hPa 0,0 l/m 2 min 0 min 631 W/m 20,9 km/h (4 Bft)
04.04.2015 12:32 6,8 C 5,0 C 77 % 1018,2 hPa 0,0 l/m 2 min 0 min 740 W/m 20,9 km/h (4 Bft)
04.04.2015 12:34 6,9 C 5,0 C 76 % 1018,3 hPa 0,0 l/m 2 min 0 min 784 W/m 25,1 km/h (4 Bft)
04.04.2015 12:36 7,1 C 5,6 C 76 % 1018,1 hPa 0,0 l/m 2 min 0 min 888 W/m 16,7 km/h (3 Bft)
04.04.2015 12:38 7,1 C 5,0 C 74 % 1018,1 hPa 0,0 l/m 2 min 0 min 556 W/m 18,8 km/h (3 Bft)
04.04.2015 12:40 7,1 C 5,0 C 73 % 1018,2 hPa 0,0 l/m 2 min 0 min 385 W/m 18,8 km/h (3 Bft)
04.04.2015 12:42 7,1 C 5,0 C 73 % 1018,2 hPa 0,0 l/m 2 min 0 min 344 W/m 20,9 km/h (4 Bft)
04.04.2015 12:44 7,1 C 5,0 C 73 % 1018,1 hPa 0,0 l/m 2 min 0 min 338 W/m 29,3 km/h (5 Bft)
04.04.2015 12:46 7,1 C 5,0 C 72 % 1018,1 hPa 0,0 l/m 2 min 0 min 729 W/m 20,9 km/h (4 Bft)
04.04.2015 12:48 7,1 C 5,0 C 73 % 1018,2 hPa 0,0 l/m 2 min 0 min 449 W/m 23,0 km/h (4 Bft)
04.04.2015 12:50 7,0 C 4,4 C 72 % 1018,1 hPa 0,0 l/m 0 min 0 min 229 W/m 20,9 km/h (4 Bft)
04.04.2015 12:52 7,0 C 4,4 C 71 % 1018,1 hPa 0,0 l/m 0 min 0 min 312 W/m 27,2 km/h (4 Bft)
04.04.2015 12:54 7,0 C 5,0 C 71 % 1018,1 hPa 0,0 l/m 2 min 0 min 636 W/m 20,9 km/h (4 Bft)
04.04.2015 12:56 7,1 C 5,6 C 72 % 1018,1 hPa 0,0 l/m 2 min 0 min 798 W/m 20,9 km/h (4 Bft)
04.04.2015 12:58 7,3 C 6,1 C 73 % 1018,2 hPa 0,0 l/m 2 min 0 min 881 W/m 25,1 km/h (4 Bft)
04.04.2015 13:00 7,5 C 6,1 C 71 % 1018,1 hPa 0,0 l/m 2 min 0 min 926 W/m 25,1 km/h (4 Bft)
04.04.2015 13:02 7,7 C 6,7 C 70 % 1018,2 hPa 0,0 l/m 2 min 0 min 933 W/m 31,4 km/h (5 Bft)
04.04.2015 13:04 7,9 C 6,1 C 68 % 1018,2 hPa 0,0 l/m 2 min 0 min 931 W/m 33,5 km/h (5 Bft)
04.04.2015 13:06 8,0 C 6,1 C 67 % 1018,1 hPa 0,0 l/m 2 min 0 min 935 W/m 27,2 km/h (4 Bft)
04.04.2015 13:08 8,1 C 6,1 C 66 % 1018,2 hPa 0,0 l/m 2 min 0 min 980 W/m 27,2 km/h (4 Bft)
04.04.2015 13:10 8,2 C 6,1 C 67 % 1018,1 hPa 0,0 l/m 2 min 0 min 525 W/m 35,6 km/h (5 Bft)
04.04.2015 13:12 8,2 C 6,1 C 67 % 1018,2 hPa 0,0 l/m 2 min 0 min 785 W/m 33,5 km/h (5 Bft)
04.04.2015 13:14 8,2 C 5,6 C 66 % 1018,2 hPa 0,0 l/m 2 min 0 min 960 W/m 31,4 km/h (5 Bft)
04.04.2015 13:16 8,1 C 5,0 C 66 % 1018,2 hPa 0,0 l/m 0 min 0 min 254 W/m 31,4 km/h (5 Bft)
04.04.2015 13:18 8,0 C 5,6 C 65 % 1018,2 hPa 0,0 l/m 2 min 0 min 655 W/m 33,5 km/h (5 Bft)
04.04.2015 13:20 8,0 C 5,6 C 66 % 1018,2 hPa 0,0 l/m 2 min 0 min 899 W/m 29,3 km/h (5 Bft)
04.04.2015 13:22 8,0 C 6,1 C 66 % 1018,1 hPa 0,0 l/m 2 min 0 min 890 W/m 27,2 km/h (4 Bft)
04.04.2015 13:24 8,1 C 6,1 C 67 % 1018,2 hPa 0,0 l/m 2 min 0 min 929 W/m 31,4 km/h (5 Bft)
04.04.2015 13:26 8,0 C 5,6 C 65 % 1018,2 hPa 0,0 l/m 2 min 0 min 670 W/m 27,2 km/h (4 Bft)
04.04.2015 13:28 7,9 C 6,1 C 65 % 1018,2 hPa 0,0 l/m 0 min 0 min 330 W/m 27,2 km/h (4 Bft)
04.04.2015 13:30 7,9 C 6,7 C 65 % 1018,2 hPa 0,0 l/m 2 min 0 min 567 W/m 25,1 km/h (4 Bft)
04.04.2015 13:32 7,9 C 7,2 C 66 % 1018,2 hPa 0,0 l/m 2 min 0 min 836 W/m 37,7 km/h (5 Bft)
04.04.2015 13:34 7,9 C 7,2 C 65 % 1018,3 hPa 0,0 l/m 2 min 0 min 840 W/m 29,3 km/h (5 Bft)
04.04.2015 13:36 8,1 C 8,3 C 66 % 1018,2 hPa 0,0 l/m 2 min 0 min 807 W/m 27,2 km/h (4 Bft)
04.04.2015 13:38 8,2 C 8,3 C 67 % 1018,2 hPa 0,0 l/m 2 min 0 min 866 W/m 29,3 km/h (5 Bft)
04.04.2015 13:40 8,3 C 8,3 C 67 % 1018,2 hPa 0,0 l/m 2 min 0 min 897 W/m 27,2 km/h (4 Bft)
04.04.2015 13:42 8,3 C 8,3 C 66 % 1018,3 hPa 0,0 l/m 2 min 0 min 928 W/m 31,4 km/h (5 Bft)
04.04.2015 13:44 8,4 C 8,3 C 67 % 1018,3 hPa 0,0 l/m 2 min 0 min 936 W/m 29,3 km/h (5 Bft)
04.04.2015 13:46 8,4 C 8,3 C 67 % 1018,2 hPa 0,0 l/m 2 min 0 min 949 W/m 33,5 km/h (5 Bft)
04.04.2015 13:48 8,4 C 7,8 C 66 % 1018,4 hPa 0,0 l/m 2 min 0 min 445 W/m 33,5 km/h (5 Bft)
04.04.2015 13:50 8,3 C 7,8 C 66 % 1018,3 hPa 0,0 l/m 2 min 0 min 518 W/m 27,2 km/h (4 Bft)
04.04.2015 13:52 8,4 C 8,3 C 66 % 1018,4 hPa 0,0 l/m 2 min 0 min 954 W/m 29,3 km/h (5 Bft)
04.04.2015 13:54 8,4 C 8,3 C 64 % 1018,3 hPa 0,0 l/m 2 min 0 min 514 W/m 20,9 km/h (4 Bft)
04.04.2015 13:56 8,4 C 7,8 C 65 % 1018,3 hPa 0,0 l/m 0 min 0 min 284 W/m 35,6 km/h (5 Bft)
04.04.2015 13:58 8,3 C 7,8 C 64 % 1018,3 hPa 0,0 l/m 0 min 0 min 286 W/m 25,1 km/h (4 Bft)
04.04.2015 14:00 8,2 C 7,2 C 64 % 1018,4 hPa 0,0 l/m 0 min 0 min 287 W/m 27,2 km/h (4 Bft)
04.04.2015 14:02 8,1 C 7,2 C 65 % 1018,3 hPa 0,0 l/m 0 min 0 min 272 W/m 27,2 km/h (4 Bft)
04.04.2015 14:04 8,0 C 7,2 C 65 % 1018,3 hPa 0,0 l/m 0 min 0 min 263 W/m 29,3 km/h (5 Bft)
04.04.2015 14:06 7,9 C 7,2 C 64 % 1018,3 hPa 0,0 l/m 0 min 0 min 272 W/m 31,4 km/h (5 Bft)
04.04.2015 14:08 7,9 C 7,2 C 64 % 1018,3 hPa 0,0 l/m 2 min 0 min 776 W/m 31,4 km/h (5 Bft)
04.04.2015 14:10 7,9 C 7,2 C 64 % 1018,2 hPa 0,0 l/m 2 min 0 min 865 W/m 31,4 km/h (5 Bft)
04.04.2015 14:12 7,9 C 7,2 C 65 % 1018,3 hPa 0,0 l/m 2 min 0 min 865 W/m 33,5 km/h (5 Bft)
04.04.2015 14:14 8,1 C 7,8 C 65 % 1018,4 hPa 0,0 l/m 2 min 0 min 866 W/m 23,0 km/h (4 Bft)
04.04.2015 14:16 8,2 C 8,3 C 65 % 1018,3 hPa 0,0 l/m 2 min 0 min 932 W/m 23,0 km/h (4 Bft)
04.04.2015 14:18 8,3 C 8,3 C 64 % 1018,3 hPa 0,0 l/m 2 min 0 min 948 W/m 33,5 km/h (5 Bft)
04.04.2015 14:20 8,4 C 8,3 C 64 % 1018,4 hPa 0,0 l/m 2 min 0 min 659 W/m 31,4 km/h (5 Bft)
04.04.2015 14:22 8,4 C 7,8 C 62 % 1018,3 hPa 0,0 l/m 2 min 0 min 341 W/m 33,5 km/h (5 Bft)
04.04.2015 14:24 8,3 C 7,8 C 63 % 1018,3 hPa 0,0 l/m 0 min 0 min 308 W/m 29,3 km/h (5 Bft)
04.04.2015 14:26 8,3 C 7,8 C 63 % 1018,3 hPa 0,0 l/m 0 min 0 min 270 W/m 31,4 km/h (5 Bft)
04.04.2015 14:28 8,2 C 7,8 C 63 % 1018,2 hPa 0,0 l/m 0 min 0 min 278 W/m 37,7 km/h (5 Bft)
04.04.2015 14:30 8,2 C 7,8 C 64 % 1018,3 hPa 0,0 l/m 2 min 0 min 718 W/m 31,4 km/h (5 Bft)
04.04.2015 14:32 8,3 C 8,3 C 64 % 1018,3 hPa 0,0 l/m 2 min 0 min 853 W/m 35,6 km/h (5 Bft)
04.04.2015 14:34 8,4 C 8,9 C 64 % 1018,2 hPa 0,0 l/m 2 min 0 min 861 W/m 35,6 km/h (5 Bft)
04.04.2015 14:36 8,6 C 9,4 C 64 % 1018,2 hPa 0,0 l/m 2 min 0 min 448 W/m 29,3 km/h (5 Bft)
04.04.2015 14:38 8,7 C 8,3 C 62 % 1018,2 hPa 0,0 l/m 2 min 0 min 802 W/m 37,7 km/h (5 Bft)
04.04.2015 14:40 8,6 C 7,8 C 60 % 1018,2 hPa 0,0 l/m 2 min 0 min 829 W/m 33,5 km/h (5 Bft)
04.04.2015 14:42 8,6 C 8,3 C 62 % 1018,2 hPa 0,0 l/m 2 min 0 min 774 W/m 25,1 km/h (4 Bft)
04.04.2015 14:44 8,6 C 8,3 C 63 % 1018,1 hPa 0,0 l/m 2 min 0 min 796 W/m 25,1 km/h (4 Bft)
04.04.2015 14:46 8,7 C 8,9 C 63 % 1018,2 hPa 0,0 l/m 2 min 0 min 823 W/m 25,1 km/h (4 Bft)
04.04.2015 14:48 8,8 C 8,9 C 62 % 1018,1 hPa 0,0 l/m 2 min 0 min 809 W/m 39,7 km/h (6 Bft)
04.04.2015 14:50 8,9 C 8,9 C 60 % 1018,1 hPa 0,0 l/m 2 min 0 min 770 W/m 33,5 km/h (5 Bft)
04.04.2015 14:52 9,0 C 8,9 C 61 % 1018,2 hPa 0,0 l/m 2 min 0 min 757 W/m 29,3 km/h (5 Bft)
04.04.2015 14:54 9,1 C 8,9 C 60 % 1018,1 hPa 0,0 l/m 2 min 0 min 754 W/m 35,6 km/h (5 Bft)
04.04.2015 14:56 9,1 C 10,0 C 58 % 1018,1 hPa 0,0 l/m 2 min 0 min 765 W/m 39,7 km/h (6 Bft)
04.04.2015 14:58 9,1 C 10,6 C 58 % 1018,2 hPa 0,0 l/m 2 min 0 min 782 W/m 35,6 km/h (5 Bft)
04.04.2015 15:00 9,1 C 12,2 C 59 % 1018,1 hPa 0,0 l/m 2 min 0 min 794 W/m 35,6 km/h (5 Bft)
04.04.2015 15:02 9,1 C 12,2 C 58 % 1018,2 hPa 0,0 l/m 2 min 0 min 805 W/m 33,5 km/h (5 Bft)
04.04.2015 15:04 9,1 C 13,9 C 58 % 1018,1 hPa 0,0 l/m 2 min 0 min 834 W/m 31,4 km/h (5 Bft)
04.04.2015 15:06 9,2 C 11,1 C 57 % 1018,2 hPa 0,0 l/m 2 min 0 min 572 W/m 33,5 km/h (5 Bft)
04.04.2015 15:08 9,1 C 10,6 C 56 % 1018,2 hPa 0,0 l/m 0 min 0 min 218 W/m 37,7 km/h (5 Bft)
04.04.2015 15:10 8,9 C 10,0 C 59 % 1018,1 hPa 0,0 l/m 0 min 0 min 225 W/m 33,5 km/h (5 Bft)
04.04.2015 15:12 8,9 C 10,0 C 60 % 1018,2 hPa 0,0 l/m 2 min 0 min 378 W/m 33,5 km/h (5 Bft)
04.04.2015 15:14 8,8 C 8,9 C 59 % 1018,2 hPa 0,0 l/m 0 min 0 min 308 W/m 29,3 km/h (5 Bft)
04.04.2015 15:16 8,7 C 10,6 C 59 % 1018,2 hPa 0,0 l/m 2 min 0 min 436 W/m 31,4 km/h (5 Bft)
04.04.2015 15:18 8,7 C 9,4 C 58 % 1018,2 hPa 0,0 l/m 2 min 0 min 540 W/m 29,3 km/h (5 Bft)
04.04.2015 15:20 8,7 C 10,6 C 59 % 1018,2 hPa 0,0 l/m 0 min 0 min 289 W/m 23,0 km/h (4 Bft)
04.04.2015 15:22 8,7 C 12,2 C 59 % 1018,2 hPa 0,0 l/m 2 min 0 min 822 W/m 29,3 km/h (5 Bft)
04.04.2015 15:24 8,7 C 12,2 C 58 % 1018,2 hPa 0,0 l/m 2 min 0 min 826 W/m 29,3 km/h (5 Bft)
04.04.2015 15:26 8,7 C 12,2 C 59 % 1018,2 hPa 0,0 l/m 2 min 0 min 833 W/m 35,6 km/h (5 Bft)
04.04.2015 15:28 8,7 C 10,0 C 57 % 1018,2 hPa 0,0 l/m 2 min 0 min 430 W/m 33,5 km/h (5 Bft)
04.04.2015 15:30 8,7 C 8,9 C 57 % 1018,2 hPa 0,0 l/m 0 min 0 min 173 W/m 27,2 km/h (4 Bft)
04.04.2015 15:32 8,6 C 10,0 C 59 % 1018,2 hPa 0,0 l/m 0 min 0 min 285 W/m 31,4 km/h (5 Bft)
04.04.2015 15:34 8,6 C 11,7 C 59 % 1018,2 hPa 0,0 l/m 2 min 0 min 779 W/m 33,5 km/h (5 Bft)
04.04.2015 15:36 8,6 C 12,2 C 59 % 1018,2 hPa 0,0 l/m 2 min 0 min 805 W/m 20,9 km/h (4 Bft)
04.04.2015 15:38 8,7 C 11,7 C 60 % 1018,1 hPa 0,0 l/m 2 min 0 min 811 W/m 31,4 km/h (5 Bft)
04.04.2015 15:40 8,7 C 11,7 C 60 % 1018,1 hPa 0,0 l/m 2 min 0 min 776 W/m 27,2 km/h (4 Bft)
04.04.2015 15:42 8,7 C 11,7 C 60 % 1018,2 hPa 0,0 l/m 2 min 0 min 757 W/m 33,5 km/h (5 Bft)
04.04.2015 15:44 8,8 C 11,1 C 59 % 1018,0 hPa 0,0 l/m 2 min 0 min 704 W/m 33,5 km/h (5 Bft)
04.04.2015 15:46 8,9 C 11,7 C 60 % 1018,0 hPa 0,0 l/m 2 min 0 min 705 W/m 29,3 km/h (5 Bft)
04.04.2015 15:48 9,0 C 11,7 C 59 % 1018,0 hPa 0,0 l/m 2 min 0 min 718 W/m 29,3 km/h (5 Bft)
04.04.2015 15:50 9,0 C 11,7 C 58 % 1018,1 hPa 0,0 l/m 2 min 0 min 719 W/m 33,5 km/h (5 Bft)
04.04.2015 15:52 9,0 C 12,2 C 56 % 1018,0 hPa 0,0 l/m 2 min 0 min 670 W/m 33,5 km/h (5 Bft)
04.04.2015 15:54 9,1 C 13,3 C 58 % 1018,0 hPa 0,0 l/m 2 min 0 min 666 W/m 27,2 km/h (4 Bft)
04.04.2015 15:56 9,2 C 14,4 C 58 % 1018,0 hPa 0,0 l/m 2 min 0 min 680 W/m 33,5 km/h (5 Bft)
04.04.2015 15:58 9,3 C 13,9 C 58 % 1018,0 hPa 0,0 l/m 2 min 0 min 691 W/m 29,3 km/h (5 Bft)
04.04.2015 16:00 9,4 C 13,9 C 58 % 1018,0 hPa 0,0 l/m 2 min 0 min 725 W/m 41,8 km/h (6 Bft)
04.04.2015 16:02 9,4 C 12,8 C 58 % 1018,0 hPa 0,0 l/m 2 min 0 min 747 W/m 39,7 km/h (6 Bft)
04.04.2015 16:04 9,4 C 10,6 C 58 % 1017,9 hPa 0,0 l/m 2 min 0 min 557 W/m 33,5 km/h (5 Bft)
04.04.2015 16:06 9,3 C 10,0 C 57 % 1018,0 hPa 0,0 l/m 0 min 0 min 187 W/m 23,0 km/h (4 Bft)
04.04.2015 16:08 9,2 C 8,9 C 57 % 1018,0 hPa 0,0 l/m 0 min 0 min 156 W/m 35,6 km/h (5 Bft)
04.04.2015 16:10 9,1 C 10,6 C 56 % 1018,0 hPa 0,0 l/m 2 min 0 min 569 W/m 41,8 km/h (6 Bft)
04.04.2015 16:12 9,1 C 12,2 C 56 % 1018,0 hPa 0,0 l/m 2 min 0 min 677 W/m 33,5 km/h (5 Bft)
04.04.2015 16:14 9,1 C 12,8 C 57 % 1018,0 hPa 0,0 l/m 2 min 0 min 697 W/m 31,4 km/h (5 Bft)
04.04.2015 16:16 9,1 C 13,3 C 57 % 1018,0 hPa 0,0 l/m 2 min 0 min 708 W/m 29,3 km/h (5 Bft)
04.04.2015 16:18 9,2 C 11,7 C 56 % 1018,0 hPa 0,0 l/m 2 min 0 min 727 W/m 35,6 km/h (5 Bft)
04.04.2015 16:20 9,2 C 10,6 C 56 % 1018,0 hPa 0,0 l/m 2 min 0 min 728 W/m 35,6 km/h (5 Bft)
04.04.2015 16:22 9,2 C 11,7 C 58 % 1018,0 hPa 0,0 l/m 2 min 0 min 647 W/m 35,6 km/h (5 Bft)
04.04.2015 16:24 9,3 C 11,7 C 56 % 1018,0 hPa 0,0 l/m 2 min 0 min 627 W/m 35,6 km/h (5 Bft)
04.04.2015 16:26 9,3 C 12,8 C 56 % 1017,9 hPa 0,0 l/m 2 min 0 min 649 W/m 29,3 km/h (5 Bft)
04.04.2015 16:28 9,5 C 11,7 C 57 % 1018,0 hPa 0,0 l/m 2 min 0 min 662 W/m 25,1 km/h (4 Bft)
04.04.2015 16:30 9,5 C 10,6 C 55 % 1017,9 hPa 0,0 l/m 2 min 0 min 263 W/m 35,6 km/h (5 Bft)
04.04.2015 16:32 9,6 C 11,1 C 56 % 1017,8 hPa 0,0 l/m 2 min 0 min 660 W/m 25,1 km/h (4 Bft)
04.04.2015 16:34 9,6 C 10,6 C 56 % 1017,8 hPa 0,0 l/m 2 min 0 min 662 W/m 35,6 km/h (5 Bft)
04.04.2015 16:36 9,6 C 10,0 C 56 % 1017,8 hPa 0,0 l/m 2 min 0 min 667 W/m 29,3 km/h (5 Bft)
04.04.2015 16:38 9,6 C 9,4 C 56 % 1017,8 hPa 0,0 l/m 2 min 0 min 638 W/m 31,4 km/h (5 Bft)
04.04.2015 16:40 9,6 C 9,4 C 56 % 1017,9 hPa 0,0 l/m 2 min 0 min 607 W/m 33,5 km/h (5 Bft)
04.04.2015 16:42 9,6 C 9,4 C 56 % 1017,8 hPa 0,0 l/m 2 min 0 min 566 W/m 31,4 km/h (5 Bft)
04.04.2015 16:44 9,6 C 9,4 C 56 % 1017,9 hPa 0,0 l/m 2 min 0 min 559 W/m 25,1 km/h (4 Bft)
04.04.2015 16:46 9,6 C 9,4 C 56 % 1017,9 hPa 0,0 l/m 2 min 0 min 596 W/m 27,2 km/h (4 Bft)
04.04.2015 16:48 9,6 C 9,4 C 56 % 1017,9 hPa 0,0 l/m 2 min 0 min 620 W/m 31,4 km/h (5 Bft)
04.04.2015 16:50 9,6 C 9,4 C 56 % 1017,7 hPa 0,0 l/m 2 min 0 min 596 W/m 29,3 km/h (5 Bft)
04.04.2015 16:52 9,6 C 9,4 C 57 % 1017,8 hPa 0,0 l/m 2 min 0 min 591 W/m 29,3 km/h (5 Bft)
04.04.2015 16:54 9,6 C 9,4 C 57 % 1017,8 hPa 0,0 l/m 2 min 0 min 582 W/m 31,4 km/h (5 Bft)
04.04.2015 16:56 9,6 C 9,4 C 57 % 1017,9 hPa 0,0 l/m 2 min 0 min 533 W/m 33,5 km/h (5 Bft)
04.04.2015 16:58 9,6 C 9,4 C 57 % 1017,9 hPa 0,0 l/m 2 min 0 min 554 W/m 37,7 km/h (5 Bft)
04.04.2015 17:00 9,6 C 9,4 C 57 % 1017,8 hPa 0,0 l/m 2 min 0 min 554 W/m 27,2 km/h (4 Bft)
04.04.2015 17:02 9,7 C 10,0 C 56 % 1017,9 hPa 0,0 l/m 2 min 0 min 538 W/m 27,2 km/h (4 Bft)
04.04.2015 17:04 9,6 C 8,9 C 55 % 1017,9 hPa 0,0 l/m 2 min 0 min 312 W/m 37,7 km/h (5 Bft)
04.04.2015 17:06 9,5 C 8,3 C 55 % 1017,9 hPa 0,0 l/m 0 min 0 min 88 W/m 33,5 km/h (5 Bft)
04.04.2015 17:08 9,4 C 9,4 C 56 % 1018,0 hPa 0,0 l/m 2 min 0 min 234 W/m 33,5 km/h (5 Bft)
04.04.2015 17:10 9,3 C 9,4 C 56 % 1017,9 hPa 0,0 l/m 2 min 0 min 502 W/m 33,5 km/h (5 Bft)
04.04.2015 17:12 9,3 C 10,6 C 57 % 1018,0 hPa 0,0 l/m 2 min 0 min 512 W/m 27,2 km/h (4 Bft)
04.04.2015 17:14 9,3 C 11,7 C 57 % 1018,0 hPa 0,0 l/m 2 min 0 min 513 W/m 39,7 km/h (6 Bft)
04.04.2015 17:16 9,4 C 11,7 C 56 % 1017,9 hPa 0,0 l/m 2 min 0 min 514 W/m 31,4 km/h (5 Bft)
04.04.2015 17:18 9,4 C 10,0 C 56 % 1017,9 hPa 0,0 l/m 2 min 0 min 431 W/m 29,3 km/h (5 Bft)
04.04.2015 17:20 9,4 C 8,9 C 57 % 1018,0 hPa 0,0 l/m 0 min 0 min 138 W/m 29,3 km/h (5 Bft)
04.04.2015 17:22 9,3 C 8,3 C 58 % 1018,0 hPa 0,0 l/m 0 min 0 min 142 W/m 31,4 km/h (5 Bft)
04.04.2015 17:24 9,2 C 8,3 C 58 % 1018,1 hPa 0,0 l/m 0 min 0 min 142 W/m 29,3 km/h (5 Bft)
04.04.2015 17:26 9,2 C 8,3 C 59 % 1018,2 hPa 0,0 l/m 2 min 0 min 386 W/m 27,2 km/h (4 Bft)
04.04.2015 17:28 9,2 C 8,3 C 60 % 1018,1 hPa 0,0 l/m 2 min 0 min 441 W/m 31,4 km/h (5 Bft)
04.04.2015 17:30 9,2 C 8,3 C 59 % 1018,1 hPa 0,0 l/m 2 min 0 min 433 W/m 29,3 km/h (5 Bft)
04.04.2015 17:32 9,2 C 8,3 C 59 % 1018,2 hPa 0,0 l/m 2 min 0 min 346 W/m 37,7 km/h (5 Bft)
04.04.2015 17:34 9,2 C 7,8 C 58 % 1018,2 hPa 0,0 l/m 2 min 0 min 209 W/m 31,4 km/h (5 Bft)
04.04.2015 17:36 9,1 C 7,8 C 58 % 1018,2 hPa 0,0 l/m 2 min 0 min 324 W/m 27,2 km/h (4 Bft)
04.04.2015 17:38 9,0 C 8,3 C 57 % 1018,2 hPa 0,0 l/m 2 min 0 min 401 W/m 33,5 km/h (5 Bft)
04.04.2015 17:40 9,1 C 8,3 C 57 % 1018,1 hPa 0,0 l/m 2 min 0 min 443 W/m 25,1 km/h (4 Bft)
04.04.2015 17:42 9,1 C 8,3 C 58 % 1018,2 hPa 0,0 l/m 2 min 0 min 404 W/m 31,4 km/h (5 Bft)
04.04.2015 17:44 9,1 C 8,3 C 58 % 1018,2 hPa 0,0 l/m 2 min 0 min 387 W/m 37,7 km/h (5 Bft)
04.04.2015 17:46 9,1 C 8,3 C 58 % 1018,1 hPa 0,0 l/m 2 min 0 min 392 W/m 37,7 km/h (5 Bft)
04.04.2015 17:48 9,1 C 7,8 C 58 % 1018,2 hPa 0,0 l/m 2 min 0 min 364 W/m 33,5 km/h (5 Bft)
04.04.2015 17:50 9,0 C 7,8 C 57 % 1018,1 hPa 0,0 l/m 2 min 0 min 260 W/m 27,2 km/h (4 Bft)
04.04.2015 17:52 9,0 C 7,8 C 58 % 1018,1 hPa 0,0 l/m 2 min 0 min 336 W/m 31,4 km/h (5 Bft)
04.04.2015 17:54 9,0 C 7,8 C 59 % 1018,1 hPa 0,0 l/m 2 min 0 min 188 W/m 29,3 km/h (5 Bft)
04.04.2015 17:56 9,0 C 7,8 C 59 % 1018,1 hPa 0,0 l/m 2 min 0 min 188 W/m 27,2 km/h (4 Bft)
04.04.2015 17:58 8,9 C 7,8 C 58 % 1018,2 hPa 0,0 l/m 0 min 0 min 99 W/m 23,0 km/h (4 Bft)
04.04.2015 18:00 8,9 C 7,8 C 59 % 1018,2 hPa 0,0 l/m 0 min 0 min 95 W/m 25,1 km/h (4 Bft)
04.04.2015 18:02 8,8 C 7,8 C 59 % 1018,3 hPa 0,0 l/m 0 min 0 min 92 W/m 33,5 km/h (5 Bft)
04.04.2015 18:06 8,7 C 7,2 C 59 % 1018,4 hPa 0,0 l/m 0 min 0 min 93 W/m 31,4 km/h (5 Bft)
04.04.2015 18:08 8,6 C 7,2 C 59 % 1018,3 hPa 0,0 l/m 0 min 0 min 115 W/m 27,2 km/h (4 Bft)
04.04.2015 18:10 8,6 C 7,2 C 59 % 1018,3 hPa 0,0 l/m 2 min 0 min 159 W/m 25,1 km/h (4 Bft)
04.04.2015 18:12 8,6 C 7,8 C 59 % 1018,3 hPa 0,0 l/m 2 min 0 min 277 W/m 25,1 km/h (4 Bft)
04.04.2015 18:14 8,7 C 7,8 C 59 % 1018,3 hPa 0,0 l/m 2 min 0 min 275 W/m 20,9 km/h (4 Bft)
04.04.2015 18:16 8,7 C 7,8 C 59 % 1018,3 hPa 0,0 l/m 2 min 0 min 277 W/m 20,9 km/h (4 Bft)
04.04.2015 18:18 8,8 C 7,8 C 58 % 1018,3 hPa 0,0 l/m 2 min 0 min 281 W/m 23,0 km/h (4 Bft)
04.04.2015 18:20 8,8 C 7,8 C 58 % 1018,3 hPa 0,0 l/m 2 min 0 min 274 W/m 27,2 km/h (4 Bft)
04.04.2015 18:22 8,9 C 7,8 C 59 % 1018,3 hPa 0,0 l/m 2 min 0 min 254 W/m 35,6 km/h (5 Bft)
04.04.2015 18:24 8,9 C 7,8 C 57 % 1018,4 hPa 0,0 l/m 2 min 0 min 206 W/m 33,5 km/h (5 Bft)
04.04.2015 18:26 8,8 C 7,8 C 56 % 1018,4 hPa 0,0 l/m 2 min 0 min 218 W/m 39,7 km/h (6 Bft)
04.04.2015 18:28 8,8 C 7,8 C 56 % 1018,3 hPa 0,0 l/m 2 min 0 min 237 W/m 33,5 km/h (5 Bft)
04.04.2015 18:30 8,8 C 7,8 C 56 % 1018,3 hPa 0,0 l/m 2 min 0 min 228 W/m 33,5 km/h (5 Bft)
04.04.2015 18:32 8,9 C 7,8 C 57 % 1018,4 hPa 0,0 l/m 2 min 0 min 185 W/m 18,8 km/h (3 Bft)
04.04.2015 18:34 8,8 C 7,2 C 57 % 1018,3 hPa 0,0 l/m 0 min 0 min 117 W/m 27,2 km/h (4 Bft)
04.04.2015 18:36 8,8 C 7,2 C 57 % 1018,4 hPa 0,0 l/m 0 min 0 min 57 W/m 31,4 km/h (5 Bft)
04.04.2015 18:38 8,7 C 7,2 C 58 % 1018,4 hPa 0,0 l/m 0 min 0 min 62 W/m 31,4 km/h (5 Bft)
04.04.2015 18:40 8,7 C 6,7 C 58 % 1018,5 hPa 0,0 l/m 0 min 0 min 60 W/m 31,4 km/h (5 Bft)
04.04.2015 18:42 8,6 C 6,7 C 59 % 1018,5 hPa 0,0 l/m 0 min 0 min 51 W/m 20,9 km/h (4 Bft)
04.04.2015 18:44 8,4 C 6,7 C 60 % 1018,4 hPa 0,0 l/m 0 min 0 min 59 W/m 27,2 km/h (4 Bft)
04.04.2015 18:46 8,4 C 6,7 C 60 % 1018,4 hPa 0,0 l/m 2 min 0 min 146 W/m 20,9 km/h (4 Bft)
04.04.2015 18:48 8,4 C 6,7 C 61 % 1018,5 hPa 0,0 l/m 2 min 0 min 144 W/m 29,3 km/h (5 Bft)
04.04.2015 18:50 8,3 C 6,7 C 61 % 1018,5 hPa 0,0 l/m 2 min 0 min 135 W/m 25,1 km/h (4 Bft)
04.04.2015 18:52 8,3 C 6,7 C 61 % 1018,5 hPa 0,0 l/m 2 min 0 min 114 W/m 25,1 km/h (4 Bft)
04.04.2015 18:54 8,3 C 6,7 C 62 % 1018,5 hPa 0,0 l/m 2 min 0 min 105 W/m 25,1 km/h (4 Bft)
04.04.2015 18:56 8,2 C 6,7 C 62 % 1018,5 hPa 0,0 l/m 2 min 0 min 110 W/m 20,9 km/h (4 Bft)
04.04.2015 18:58 8,2 C 6,7 C 62 % 1018,6 hPa 0,0 l/m 2 min 0 min 111 W/m 23,0 km/h (4 Bft)
04.04.2015 19:00 8,2 C 6,7 C 63 % 1018,6 hPa 0,0 l/m 2 min 0 min 106 W/m 31,4 km/h (5 Bft)
04.04.2015 19:02 8,2 C 6,7 C 62 % 1018,7 hPa 0,0 l/m 2 min 0 min 103 W/m 27,2 km/h (4 Bft)
04.04.2015 19:04 8,2 C 6,7 C 62 % 1018,7 hPa 0,0 l/m 2 min 0 min 97 W/m 27,2 km/h (4 Bft)
04.04.2015 19:06 8,2 C 6,7 C 61 % 1018,7 hPa 0,0 l/m 2 min 0 min 89 W/m 27,2 km/h (4 Bft)
04.04.2015 19:08 8,2 C 6,7 C 61 % 1018,7 hPa 0,0 l/m 0 min 0 min 72 W/m 25,1 km/h (4 Bft)
04.04.2015 19:10 8,1 C 6,7 C 61 % 1018,8 hPa 0,0 l/m 0 min 0 min 62 W/m 20,9 km/h (4 Bft)
04.04.2015 19:12 8,2 C 6,7 C 62 % 1018,8 hPa 0,0 l/m 0 min 0 min 51 W/m 23,0 km/h (4 Bft)
04.04.2015 19:14 8,1 C 6,7 C 62 % 1018,8 hPa 0,0 l/m 0 min 0 min 49 W/m 20,9 km/h (4 Bft)
04.04.2015 19:16 8,2 C 6,7 C 62 % 1018,8 hPa 0,0 l/m 0 min 0 min 43 W/m 23,0 km/h (4 Bft)
04.04.2015 19:18 8,2 C 6,7 C 62 % 1018,8 hPa 0,0 l/m 0 min 0 min 40 W/m 18,8 km/h (3 Bft)
04.04.2015 19:20 8,2 C 6,7 C 62 % 1018,7 hPa 0,0 l/m 0 min 0 min 39 W/m 12,6 km/h (3 Bft)
04.04.2015 19:22 8,2 C 6,7 C 62 % 1018,8 hPa 0,0 l/m 0 min 0 min 36 W/m 23,0 km/h (4 Bft)
04.04.2015 19:24 8,2 C 6,7 C 62 % 1018,8 hPa 0,0 l/m 0 min 0 min 36 W/m 18,8 km/h (3 Bft)
04.04.2015 19:26 8,1 C 6,7 C 61 % 1018,8 hPa 0,0 l/m 0 min 0 min 37 W/m 29,3 km/h (5 Bft)
04.04.2015 19:28 8,1 C 6,7 C 61 % 1018,8 hPa 0,0 l/m 0 min 0 min 39 W/m 20,9 km/h (4 Bft)
04.04.2015 19:30 8,1 C 6,7 C 61 % 1018,8 hPa 0,0 l/m 0 min 0 min 45 W/m 25,1 km/h (4 Bft)
04.04.2015 19:32 8,1 C 6,7 C 61 % 1018,8 hPa 0,0 l/m 2 min 0 min 46 W/m 20,9 km/h (4 Bft)
04.04.2015 19:34 8,1 C 6,7 C 62 % 1018,8 hPa 0,0 l/m 2 min 0 min 47 W/m 16,7 km/h (3 Bft)
04.04.2015 19:36 8,1 C 6,7 C 62 % 1018,8 hPa 0,0 l/m 2 min 0 min 44 W/m 25,1 km/h (4 Bft)
04.04.2015 19:38 8,0 C 6,7 C 63 % 1018,8 hPa 0,0 l/m 0 min 0 min 36 W/m 18,8 km/h (3 Bft)
04.04.2015 19:40 8,0 C 6,7 C 63 % 1018,9 hPa 0,0 l/m 0 min 0 min 30 W/m 20,9 km/h (4 Bft)
04.04.2015 19:42 7,9 C 6,1 C 63 % 1018,9 hPa 0,0 l/m 0 min 0 min 23 W/m 29,3 km/h (5 Bft)
04.04.2015 19:44 7,9 C 6,1 C 62 % 1018,9 hPa 0,0 l/m 0 min 0 min 20 W/m 25,1 km/h (4 Bft)
04.04.2015 19:46 7,8 C 6,1 C 62 % 1018,9 hPa 0,0 l/m 0 min 0 min 18 W/m 27,2 km/h (4 Bft)
04.04.2015 19:48 7,8 C 6,1 C 62 % 1019,0 hPa 0,0 l/m 0 min 0 min 15 W/m 27,2 km/h (4 Bft)
04.04.2015 19:50 7,7 C 6,1 C 62 % 1019,0 hPa 0,0 l/m 0 min 0 min 14 W/m 27,2 km/h (4 Bft)
04.04.2015 19:52 7,7 C 6,1 C 62 % 1019,0 hPa 0,0 l/m 0 min 0 min 14 W/m 20,9 km/h (4 Bft)
04.04.2015 19:54 7,7 C 6,1 C 62 % 1019,1 hPa 0,0 l/m 0 min 0 min 14 W/m 18,8 km/h (3 Bft)
04.04.2015 19:56 7,6 C 6,1 C 62 % 1019,1 hPa 0,0 l/m 2 min 0 min 14 W/m 18,8 km/h (3 Bft)
04.04.2015 19:58 7,6 C 5,6 C 63 % 1019,3 hPa 0,0 l/m 2 min 0 min 14 W/m 33,5 km/h (5 Bft)
04.04.2015 20:00 7,5 C 5,6 C 63 % 1019,2 hPa 0,0 l/m 2 min 0 min 12 W/m 27,2 km/h (4 Bft)
04.04.2015 20:02 7,4 C 5,6 C 63 % 1019,3 hPa 0,0 l/m 0 min 0 min 12 W/m 18,8 km/h (3 Bft)
04.04.2015 20:04 7,4 C 5,6 C 64 % 1019,3 hPa 0,0 l/m 0 min 0 min 12 W/m 16,7 km/h (3 Bft)
04.04.2015 20:06 7,3 C 5,6 C 64 % 1019,3 hPa 0,0 l/m 0 min 0 min 11 W/m 20,9 km/h (4 Bft)
04.04.2015 20:08 7,3 C 5,6 C 65 % 1019,4 hPa 0,0 l/m 0 min 0 min 10 W/m 23,0 km/h (4 Bft)
04.04.2015 20:10 7,2 C 5,6 C 65 % 1019,5 hPa 0,0 l/m 0 min 0 min 8 W/m 18,8 km/h (3 Bft)
04.04.2015 20:12 7,2 C 5,6 C 65 % 1019,5 hPa 0,0 l/m 0 min 0 min 7 W/m 23,0 km/h (4 Bft)
04.04.2015 20:14 7,1 C 5,6 C 65 % 1019,5 hPa 0,0 l/m 0 min 0 min 6 W/m 18,8 km/h (3 Bft)
04.04.2015 20:16 7,1 C 5,0 C 66 % 1019,5 hPa 0,0 l/m 0 min 0 min 5 W/m 14,6 km/h (3 Bft)
04.04.2015 20:18 7,0 C 5,0 C 66 % 1019,6 hPa 0,0 l/m 0 min 0 min 0 W/m 16,7 km/h (3 Bft)
04.04.2015 20:20 6,9 C 5,0 C 66 % 1019,6 hPa 0,0 l/m 0 min 0 min 0 W/m 18,8 km/h (3 Bft)
04.04.2015 20:22 6,9 C 5,0 C 67 % 1019,7 hPa 0,0 l/m 0 min 0 min 0 W/m 16,7 km/h (3 Bft)
04.04.2015 20:24 6,8 C 5,0 C 67 % 1019,7 hPa 0,0 l/m 0 min 0 min 0 W/m 16,7 km/h (3 Bft)
04.04.2015 20:26 6,8 C 5,0 C 67 % 1019,7 hPa 0,0 l/m 0 min 0 min 0 W/m 16,7 km/h (3 Bft)
04.04.2015 20:28 6,7 C 5,0 C 68 % 1019,7 hPa 0,0 l/m 0 min 0 min 0 W/m 16,7 km/h (3 Bft)
04.04.2015 20:30 6,7 C 5,0 C 68 % 1019,7 hPa 0,0 l/m 0 min 0 min 0 W/m 12,6 km/h (3 Bft)
04.04.2015 20:32 6,7 C 5,0 C 68 % 1019,7 hPa 0,0 l/m 0 min 0 min 0 W/m 14,6 km/h (3 Bft)
04.04.2015 20:34 6,6 C 5,0 C 68 % 1019,7 hPa 0,0 l/m 0 min 0 min 0 W/m 14,6 km/h (3 Bft)
04.04.2015 20:36 6,6 C 4,4 C 69 % 1019,7 hPa 0,0 l/m 0 min 0 min 0 W/m 14,6 km/h (3 Bft)
04.04.2015 20:38 6,5 C 4,4 C 69 % 1019,8 hPa 0,0 l/m 0 min 0 min 0 W/m 12,6 km/h (3 Bft)
04.04.2015 20:40 6,5 C 4,4 C 69 % 1019,8 hPa 0,0 l/m 0 min 0 min 0 W/m 10,5 km/h (2 Bft)
04.04.2015 20:42 6,4 C 4,4 C 70 % 1019,8 hPa 0,0 l/m 0 min 0 min 0 W/m 14,6 km/h (3 Bft)
04.04.2015 20:44 6,4 C 4,4 C 70 % 1019,8 hPa 0,0 l/m 0 min 0 min 0 W/m 14,6 km/h (3 Bft)
04.04.2015 20:46 6,4 C 4,4 C 70 % 1019,8 hPa 0,0 l/m 0 min 0 min 0 W/m 14,6 km/h (3 Bft)
04.04.2015 20:48 6,3 C 4,4 C 70 % 1019,9 hPa 0,0 l/m 0 min 0 min 0 W/m 14,6 km/h (3 Bft)
04.04.2015 20:50 6,3 C 4,4 C 71 % 1019,9 hPa 0,0 l/m 0 min 0 min 0 W/m 14,6 km/h (3 Bft)
04.04.2015 20:52 6,2 C 4,4 C 71 % 1019,9 hPa 0,0 l/m 0 min 0 min 0 W/m 14,6 km/h (3 Bft)
04.04.2015 20:54 6,2 C 4,4 C 71 % 1019,9 hPa 0,0 l/m 0 min 0 min 0 W/m 16,7 km/h (3 Bft)
04.04.2015 20:56 6,2 C 4,4 C 72 % 1019,9 hPa 0,0 l/m 0 min 0 min 0 W/m 18,8 km/h (3 Bft)
04.04.2015 20:58 6,1 C 4,4 C 72 % 1019,9 hPa 0,0 l/m 0 min 0 min 0 W/m 18,8 km/h (3 Bft)
04.04.2015 21:00 6,1 C 4,4 C 72 % 1019,9 hPa 0,0 l/m 0 min 0 min 0 W/m 14,6 km/h (3 Bft)
04.04.2015 21:02 6,1 C 4,4 C 72 % 1020,0 hPa 0,0 l/m 0 min 0 min 0 W/m 14,6 km/h (3 Bft)
04.04.2015 21:04 6,0 C 4,4 C 72 % 1020,0 hPa 0,0 l/m 0 min 0 min 0 W/m 18,8 km/h (3 Bft)
04.04.2015 21:06 6,0 C 4,4 C 72 % 1020,0 hPa 0,0 l/m 0 min 0 min 0 W/m 14,6 km/h (3 Bft)
04.04.2015 21:08 5,9 C 4,4 C 72 % 1020,2 hPa 0,0 l/m 0 min 0 min 0 W/m 20,9 km/h (4 Bft)
04.04.2015 21:10 5,9 C 4,4 C 72 % 1020,2 hPa 0,0 l/m 0 min 0 min 0 W/m 16,7 km/h (3 Bft)
04.04.2015 21:12 5,9 C 4,4 C 73 % 1020,2 hPa 0,0 l/m 0 min 0 min 0 W/m 10,5 km/h (2 Bft)
04.04.2015 21:14 5,8 C 4,4 C 73 % 1020,2 hPa 0,0 l/m 0 min 0 min 0 W/m 12,6 km/h (3 Bft)
04.04.2015 21:16 5,8 C 3,9 C 73 % 1020,3 hPa 0,0 l/m 0 min 0 min 0 W/m 12,6 km/h (3 Bft)
04.04.2015 21:18 5,8 C 3,9 C 73 % 1020,3 hPa 0,0 l/m 0 min 0 min 0 W/m 20,9 km/h (4 Bft)
04.04.2015 21:20 5,8 C 3,9 C 73 % 1020,3 hPa 0,0 l/m 0 min 0 min 0 W/m 14,6 km/h (3 Bft)
04.04.2015 21:22 5,7 C 3,9 C 73 % 1020,4 hPa 0,0 l/m 0 min 0 min 0 W/m 20,9 km/h (4 Bft)
04.04.2015 21:24 5,7 C 3,9 C 73 % 1020,4 hPa 0,0 l/m 0 min 0 min 0 W/m 14,6 km/h (3 Bft)
04.04.2015 21:26 5,7 C 3,9 C 73 % 1020,4 hPa 0,0 l/m 0 min 0 min 0 W/m 12,6 km/h (3 Bft)
04.04.2015 21:28 5,6 C 3,9 C 73 % 1020,4 hPa 0,0 l/m 0 min 0 min 0 W/m 12,6 km/h (3 Bft)
04.04.2015 21:30 5,6 C 3,9 C 73 % 1020,4 hPa 0,0 l/m 0 min 0 min 0 W/m 10,5 km/h (2 Bft)
04.04.2015 21:32 5,6 C 3,9 C 73 % 1020,5 hPa 0,0 l/m 0 min 0 min 0 W/m 12,6 km/h (3 Bft)
04.04.2015 21:34 5,6 C 3,9 C 74 % 1020,5 hPa 0,0 l/m 0 min 0 min 0 W/m 16,7 km/h (3 Bft)
04.04.2015 21:36 5,5 C 3,9 C 73 % 1020,5 hPa 0,0 l/m 0 min 0 min 0 W/m 16,7 km/h (3 Bft)
04.04.2015 21:38 5,5 C 3,9 C 74 % 1020,5 hPa 0,0 l/m 0 min 0 min 0 W/m 10,5 km/h (2 Bft)
04.04.2015 21:40 5,4 C 3,9 C 74 % 1020,5 hPa 0,0 l/m 0 min 0 min 0 W/m 18,8 km/h (3 Bft)
04.04.2015 21:42 5,4 C 3,9 C 74 % 1020,5 hPa 0,0 l/m 0 min 0 min 0 W/m 14,6 km/h (3 Bft)
04.04.2015 21:44 5,4 C 3,9 C 74 % 1020,6 hPa 0,0 l/m 0 min 0 min 0 W/m 14,6 km/h (3 Bft)
04.04.2015 21:46 5,3 C 3,9 C 74 % 1020,6 hPa 0,0 l/m 0 min 0 min 0 W/m 12,6 km/h (3 Bft)
04.04.2015 21:48 5,3 C 3,9 C 74 % 1020,7 hPa 0,0 l/m 0 min 0 min 0 W/m 12,6 km/h (3 Bft)
04.04.2015 21:50 5,3 C 3,9 C 74 % 1020,7 hPa 0,0 l/m 0 min 0 min 0 W/m 12,6 km/h (3 Bft)
04.04.2015 21:52 5,3 C 3,9 C 74 % 1020,7 hPa 0,0 l/m 0 min 0 min 0 W/m 14,6 km/h (3 Bft)
04.04.2015 21:54 5,3 C 3,9 C 75 % 1020,8 hPa 0,0 l/m 0 min 0 min 0 W/m 14,6 km/h (3 Bft)
04.04.2015 21:56 5,2 C 3,3 C 75 % 1020,8 hPa 0,0 l/m 0 min 0 min 0 W/m 12,6 km/h (3 Bft)
04.04.2015 21:58 5,2 C 3,3 C 75 % 1020,8 hPa 0,0 l/m 0 min 0 min 0 W/m 8,4 km/h (2 Bft)
04.04.2015 22:00 5,2 C 3,3 C 75 % 1020,8 hPa 0,0 l/m 0 min 0 min 0 W/m 14,6 km/h (3 Bft)
04.04.2015 22:02 5,1 C 3,3 C 75 % 1020,8 hPa 0,0 l/m 0 min 0 min 0 W/m 12,6 km/h (3 Bft)
04.04.2015 22:04 5,1 C 3,3 C 75 % 1020,8 hPa 0,0 l/m 0 min 0 min 0 W/m 14,6 km/h (3 Bft)
04.04.2015 22:06 5,1 C 3,3 C 76 % 1020,9 hPa 0,0 l/m 0 min 0 min 0 W/m 18,8 km/h (3 Bft)
04.04.2015 22:08 5,0 C 3,3 C 76 % 1020,9 hPa 0,0 l/m 0 min 0 min 0 W/m 16,7 km/h (3 Bft)
04.04.2015 22:10 5,0 C 3,3 C 76 % 1020,9 hPa 0,0 l/m 0 min 0 min 0 W/m 14,6 km/h (3 Bft)
04.04.2015 22:12 5,0 C 3,3 C 76 % 1020,9 hPa 0,0 l/m 0 min 0 min 0 W/m 16,7 km/h (3 Bft)
04.04.2015 22:14 4,9 C 3,3 C 76 % 1020,9 hPa 0,0 l/m 0 min 0 min 0 W/m 14,6 km/h (3 Bft)
04.04.2015 22:16 4,9 C 3,3 C 76 % 1020,9 hPa 0,0 l/m 0 min 0 min 0 W/m 14,6 km/h (3 Bft)
04.04.2015 22:18 4,9 C 3,3 C 76 % 1020,9 hPa 0,0 l/m 0 min 0 min 0 W/m 10,5 km/h (2 Bft)
04.04.2015 22:20 4,9 C 3,3 C 76 % 1021,0 hPa 0,0 l/m 0 min 0 min 0 W/m 12,6 km/h (3 Bft)
04.04.2015 22:22 4,9 C 3,3 C 76 % 1021,0 hPa 0,0 l/m 0 min 0 min 0 W/m 10,5 km/h (2 Bft)
04.04.2015 22:24 4,8 C 3,3 C 76 % 1021,0 hPa 0,0 l/m 0 min 0 min 0 W/m 14,6 km/h (3 Bft)
04.04.2015 22:26 4,8 C 3,3 C 76 % 1021,1 hPa 0,0 l/m 0 min 0 min 0 W/m 14,6 km/h (3 Bft)
04.04.2015 22:28 4,8 C 3,3 C 76 % 1021,1 hPa 0,0 l/m 0 min 0 min 0 W/m 12,6 km/h (3 Bft)
04.04.2015 22:30 4,8 C 3,3 C 77 % 1021,1 hPa 0,0 l/m 0 min 0 min 0 W/m 14,6 km/h (3 Bft)
04.04.2015 22:32 4,7 C 3,3 C 77 % 1021,1 hPa 0,0 l/m 0 min 0 min 0 W/m 16,7 km/h (3 Bft)
04.04.2015 22:34 4,7 C 3,3 C 77 % 1021,2 hPa 0,0 l/m 0 min 0 min 0 W/m 16,7 km/h (3 Bft)
04.04.2015 22:36 4,7 C 3,3 C 77 % 1021,2 hPa 0,0 l/m 0 min 0 min 0 W/m 12,6 km/h (3 Bft)
04.04.2015 22:38 4,7 C 3,3 C 77 % 1021,2 hPa 0,0 l/m 0 min 0 min 0 W/m 16,7 km/h (3 Bft)
04.04.2015 22:40 4,7 C 3,3 C 77 % 1021,2 hPa 0,0 l/m 0 min 0 min 0 W/m 12,6 km/h (3 Bft)
04.04.2015 22:42 4,7 C 3,3 C 77 % 1021,2 hPa 0,0 l/m 0 min 0 min 0 W/m 8,4 km/h (2 Bft)
04.04.2015 22:44 4,6 C 3,3 C 77 % 1021,3 hPa 0,0 l/m 0 min 0 min 0 W/m 14,6 km/h (3 Bft)
04.04.2015 22:46 4,6 C 3,3 C 77 % 1021,3 hPa 0,0 l/m 0 min 0 min 0 W/m 10,5 km/h (2 Bft)
04.04.2015 22:48 4,6 C 2,8 C 77 % 1021,3 hPa 0,0 l/m 0 min 0 min 0 W/m 10,5 km/h (2 Bft)
04.04.2015 22:50 4,6 C 2,8 C 77 % 1021,3 hPa 0,0 l/m 0 min 0 min 0 W/m 10,5 km/h (2 Bft)
04.04.2015 22:52 4,5 C 2,8 C 77 % 1021,3 hPa 0,0 l/m 0 min 0 min 0 W/m 10,5 km/h (2 Bft)
04.04.2015 22:54 4,5 C 2,8 C 78 % 1021,4 hPa 0,0 l/m 0 min 0 min 0 W/m 8,4 km/h (2 Bft)
04.04.2015 22:56 4,5 C 2,8 C 78 % 1021,4 hPa 0,0 l/m 0 min 0 min 0 W/m 10,5 km/h (2 Bft)
04.04.2015 22:58 4,4 C 2,8 C 78 % 1021,4 hPa 0,0 l/m 0 min 0 min 0 W/m 10,5 km/h (2 Bft)
04.04.2015 23:00 4,4 C 2,8 C 78 % 1021,4 hPa 0,0 l/m 0 min 0 min 0 W/m 10,5 km/h (2 Bft)
04.04.2015 23:02 4,4 C 2,8 C 78 % 1021,5 hPa 0,0 l/m 0 min 0 min 0 W/m 8,4 km/h (2 Bft)
04.04.2015 23:04 4,4 C 2,8 C 78 % 1021,4 hPa 0,0 l/m 0 min 0 min 0 W/m 10,5 km/h (2 Bft)
04.04.2015 23:06 4,3 C 2,8 C 78 % 1021,5 hPa 0,0 l/m 0 min 0 min 0 W/m 8,4 km/h (2 Bft)
04.04.2015 23:08 4,3 C 2,8 C 78 % 1021,5 hPa 0,0 l/m 0 min 0 min 0 W/m 10,5 km/h (2 Bft)
04.04.2015 23:10 4,3 C 2,8 C 78 % 1021,5 hPa 0,0 l/m 0 min 0 min 0 W/m 10,5 km/h (2 Bft)
04.04.2015 23:12 4,2 C 2,2 C 78 % 1021,5 hPa 0,0 l/m 0 min 0 min 0 W/m 10,5 km/h (2 Bft)
04.04.2015 23:14 4,2 C 2,2 C 78 % 1021,5 hPa 0,0 l/m 0 min 0 min 0 W/m 10,5 km/h (2 Bft)
04.04.2015 23:16 4,2 C 2,2 C 79 % 1021,6 hPa 0,0 l/m 0 min 0 min 0 W/m 6,3 km/h (2 Bft)
04.04.2015 23:18 4,2 C 2,2 C 79 % 1021,6 hPa 0,0 l/m 0 min 0 min 0 W/m 10,5 km/h (2 Bft)
04.04.2015 23:20 4,1 C 2,2 C 79 % 1021,6 hPa 0,0 l/m 0 min 0 min 0 W/m 8,4 km/h (2 Bft)
04.04.2015 23:22 4,1 C 2,2 C 79 % 1021,6 hPa 0,0 l/m 0 min 0 min 0 W/m 6,3 km/h (2 Bft)
04.04.2015 23:24 4,1 C 2,2 C 79 % 1021,5 hPa 0,0 l/m 0 min 0 min 0 W/m 10,5 km/h (2 Bft)
04.04.2015 23:26 4,1 C 2,2 C 79 % 1021,5 hPa 0,0 l/m 0 min 0 min 0 W/m 8,4 km/h (2 Bft)
04.04.2015 23:28 4,0 C 1,7 C 79 % 1021,5 hPa 0,0 l/m 0 min 0 min 0 W/m 8,4 km/h (2 Bft)
04.04.2015 23:30 4,0 C 1,7 C 79 % 1021,5 hPa 0,0 l/m 0 min 0 min 0 W/m 8,4 km/h (2 Bft)
04.04.2015 23:32 3,9 C 1,7 C 79 % 1021,5 hPa 0,0 l/m 0 min 0 min 0 W/m 12,6 km/h (3 Bft)
04.04.2015 23:34 3,9 C 1,7 C 79 % 1021,5 hPa 0,0 l/m 0 min 0 min 0 W/m 8,4 km/h (2 Bft)
04.04.2015 23:36 3,9 C 1,7 C 79 % 1021,5 hPa 0,0 l/m 0 min 0 min 0 W/m 6,3 km/h (2 Bft)
04.04.2015 23:38 3,8 C 1,7 C 79 % 1021,5 hPa 0,0 l/m 0 min 0 min 0 W/m 8,4 km/h (2 Bft)
04.04.2015 23:40 3,8 C 1,7 C 79 % 1021,6 hPa 0,0 l/m 0 min 0 min 0 W/m 10,5 km/h (2 Bft)
04.04.2015 23:42 3,8 C 1,7 C 80 % 1021,5 hPa 0,0 l/m 0 min 0 min 0 W/m 6,3 km/h (2 Bft)
04.04.2015 23:44 3,7 C 2,2 C 80 % 1021,5 hPa 0,0 l/m 0 min 0 min 0 W/m 10,5 km/h (2 Bft)
04.04.2015 23:46 3,7 C 2,2 C 80 % 1021,5 hPa 0,0 l/m 0 min 0 min 0 W/m 12,6 km/h (3 Bft)
04.04.2015 23:48 3,7 C 2,2 C 80 % 1021,5 hPa 0,0 l/m 0 min 0 min 0 W/m 10,5 km/h (2 Bft)
04.04.2015 23:50 3,6 C 2,2 C 80 % 1021,5 hPa 0,0 l/m 0 min 0 min 0 W/m 12,6 km/h (3 Bft)
04.04.2015 23:52 3,6 C 2,2 C 80 % 1021,5 hPa 0,0 l/m 0 min 0 min 0 W/m 14,6 km/h (3 Bft)
04.04.2015 23:54 3,6 C 2,2 C 80 % 1021,5 hPa 0,0 l/m 0 min 0 min 0 W/m 12,6 km/h (3 Bft)
04.04.2015 23:56 3,6 C 2,2 C 80 % 1021,5 hPa 0,0 l/m 0 min 0 min 0 W/m 12,6 km/h (3 Bft)
04.04.2015 23:58 3,5 C 2,2 C 80 % 1021,5 hPa 0,0 l/m 0 min 0 min 0 W/m 12,6 km/h (3 Bft)
_ Min-Zeit 10:06 10:02 16:30 05:56 - - - - 06:40
Minimum _ 2,9 C 1,7 C 55 % 1015,3 hPa - - - - 2,1 km/h (1 Bft)
_ Max-Zeit 17:02 15:56 10:36 23:16 05:34 11:22 04:48 13:08 16:00
Maximum _ 9,7 C 14,4 C 94 % 1021,6 hPa 0,2 l/m 2 min 2 min 980 W/m 41,8 km/h
N-NO (6 Bft)
Durchschnitt _ 6,5 C 5,3 C 74 % 1017,6 hPa #2,6 l/m #6:20 h #5:04 h 325 W/m 18,2 km/h (3 Bft)
© 2015 W. Hausmann